Data for 08/12/2008

Time Sea-Level Adjusted Pressure Absolute Pressure Temperature Relative Humidity Dew Point Precipitation   
(mb) (inHg) (mb) (inHg) (C) (F) (%) (C) (F) (mm) (in)
00:01 1022 30.18 851 25.13 9.5 49.1 61 2.4 36.2 0
00:02 1022 30.18 851 25.13 9.5 49 62 2.6 36.6 0
00:03 1022 30.18 851 25.13 9.4 48.9 62 2.6 36.7 0
00:04 1022 30.18 851 25.13 9.3 48.7 64 3 37.3 0
00:05 1022 30.18 851 25.13 9.1 48.3 65 2.9 37.1 0
00:06 1022 30.18 851 25.13 9 48.2 65 2.8 37.1 0
00:07 1022 30.18 851 25.13 8.9 48.1 66 2.9 37.2 0
00:08 1022 30.18 851 25.13 8.9 48 66 2.9 37.3 0
00:09 1022 30.18 851 25.13 8.8 47.8 67 2.9 37.3 0
00:10 1022 30.18 851 25.13 8.7 47.7 67 3 37.3 0
00:11 1022 30.18 851 25.13 8.6 47.5 68 3.1 37.5 0
00:12 1022 30.18 851 25.13 8.5 47.3 69 3.1 37.5 0
00:13 1022 30.18 851 25.13 8.4 47.2 68 3 37.3 0
00:14 1022 30.18 851 25.13 8.4 47.1 68 2.9 37.3 0
00:15 1022 30.18 851 25.13 8.4 47.1 69 3.1 37.5 0
00:16 1022 30.18 851 25.13 8.3 47 69 3.1 37.5 0
00:17 1022 30.18 851 25.13 8.3 46.9 70 3.2 37.7 0
00:18 1022 30.18 851 25.13 8.2 46.7 71 3.2 37.7 0
00:19 1022 30.18 851 25.13 8 46.5 72 3.3 37.9 0
00:20 1022 30.18 851 25.13 7.9 46.2 73 3.3 37.9 0
00:21 1022 30.18 851 25.13 7.7 45.9 73 3.2 37.7 0
00:22 1022 30.18 851 25.13 7.6 45.7 74 3.3 37.9 0
00:23 1022 30.18 851 25.13 7.5 45.5 75 3.3 37.9 0
00:24 1022 30.18 851 25.13 7.5 45.4 75 3.3 37.9 0
00:25 1022 30.18 851 25.13 7.4 45.3 75 3.3 38 0
00:26 1022 30.18 851 25.13 7.4 45.2 75 3.1 37.6 0
00:27 1022 30.18 851 25.13 7.3 45.2 75 3.1 37.6 0
00:28 1022 30.18 851 25.13 7.4 45.3 74 3.1 37.7 0
00:29 1022 30.18 851 25.13 7.4 45.4 74 3.1 37.5 0
00:30 1022 30.18 851 25.13 7.5 45.4 73 2.9 37.3 0
00:31 1022 30.18 851 25.13 7.6 45.6 73 3 37.4 0
00:32 1022 30.18 851 25.13 7.6 45.7 72 2.9 37.2 0
00:33 1022 30.18 851 25.13 7.7 45.9 71 2.7 36.9 0
00:34 1022 30.18 851 25.13 7.9 46.1 70 2.7 36.9 0
00:35 1022 30.18 851 25.13 8 46.4 69 2.8 37 0
00:36 1022 30.18 851 25.13 8 46.4 69 2.8 37 0
00:37 1022 30.18 851 25.13 8.1 46.5 69 2.7 36.9 0
00:38 1022 30.18 851 25.13 8.1 46.5 69 2.8 37 0
00:39 1022 30.18 851 25.13 8 46.5 69 2.8 37 0
00:40 1022 30.18 851 25.13 8.1 46.6 69 2.9 37.2 0
00:41 1022 30.18 851 25.13 8.1 46.5 70 2.9 37.2 0
00:42 1022 30.18 851 25.13 8 46.3 70 2.9 37.1 0
00:43 1022 30.18 851 25.13 8 46.3 70 2.9 37.3 0
00:44 1022 30.18 851 25.13 7.9 46.1 70 2.8 37 0
00:45 1022 30.18 851 25.13 7.8 46.1 71 2.9 37.1 0
00:46 1022 30.18 851 25.13 7.7 45.8 72 2.9 37.2 0
00:47 1022 30.18 851 25.13 7.5 45.6 72 2.8 37 0
00:48 1022 30.18 851 25.13 7.5 45.4 72 2.8 37 0
00:49 1022 30.18 851 25.13 7.4 45.3 73 2.8 37 0
00:50 1022 30.18 851 25.13 7.3 45.2 73 2.8 37 0
00:51 1022 30.18 851 25.13 7.3 45.1 73 2.8 37.1 0
00:52 1022 30.18 851 25.13 7.2 44.9 73 2.6 36.7 0
00:53 1022 30.18 851 25.13 7.3 45.1 71 2.5 36.4 0
00:54 1022 30.18 851 25.13 7.4 45.2 71 2.5 36.4 0
00:55 1022 30.18 851 25.13 7.4 45.3 71 2.5 36.5 0
00:56 1022 30.18 851 25.13 7.5 45.5 71 2.6 36.7 0
00:57 1022 30.18 851 25.13 7.5 45.5 72 2.8 37 0
00:58 1022 30.18 851 25.13 7.4 45.2 74 3 37.4 0
00:59 1022 30.18 851 25.13 7.1 44.7 74 2.7 36.9 0
01:00 1022 30.18 851 25.13 7.1 44.8 73 2.7 36.9 0
01:01 1022 30.18 851 25.13 7.2 45 73 2.6 36.7 0
01:02 1022 30.18 851 25.13 7.4 45.4 71 2.5 36.5 0
01:03 1022 30.18 851 25.13 7.7 45.8 70 2.6 36.6 0
01:04 1022 30.18 851 25.13 7.8 46.1 70 2.8 37 0
01:05 1022 30.18 851 25.13 7.9 46.1 71 2.9 37.1 0
01:06 1022 30.18 851 25.13 7.8 46.1 71 2.8 37.1 0
01:07 1022 30.18 851 25.13 7.7 45.9 70 2.7 36.8 0
01:08 1022 30.18 851 25.13 7.8 46 69 2.4 36.4 0
01:09 1022 30.18 851 25.13 7.9 46.3 69 2.6 36.6 0
01:10 1022 30.18 851 25.13 7.9 46.3 68 2.4 36.2 0
01:11 1022 30.18 851 25.13 7.9 46.3 68 2.4 36.3 0
01:12 1022 30.18 851 25.13 7.9 46.2 68 2.4 36.4 0
01:13 1022 30.18 851 25.13 7.8 46 68 2.3 36.1 0
01:14 1022 30.18 851 25.13 7.8 46 69 2.5 36.4 0
01:15 1022 30.18 851 25.13 7.7 45.8 69 2.4 36.3 0
01:16 1022 30.18 851 25.13 7.6 45.7 69 2.4 36.3 0
01:17 1022 30.18 851 25.13 7.6 45.6 69 2.4 36.2 0
01:18 1022 30.18 851 25.13 7.5 45.6 70 2.4 36.2 0
01:19 1022 30.18 851 25.13 7.5 45.4 67 1.9 35.3 0
01:20 1022 30.18 851 25.13 7.6 45.6 66 1.7 35.1 0
01:21 1022 30.18 851 25.13 7.9 46.1 64 1.5 34.7 0
01:22 1022 30.18 851 25.13 8.2 46.7 62 1.4 34.5 0
01:23 1022 30.18 851 25.13 8.5 47.4 60 1.2 34.2 0
01:24 1022 30.18 851 25.13 8.8 47.8 59 1.3 34.3 0
01:25 1022 30.18 851 25.13 8.9 48.1 59 1.3 34.4 0
01:26 1022 30.18 851 25.13 9.1 48.3 59 1.5 34.8 0
01:27 1022 30.18 851 25.13 9.1 48.4 60 1.7 35.1 0
01:28 1022 30.18 851 25.13 9.1 48.3 59 1.6 34.8 0
01:29 1022 30.18 851 25.13 9.1 48.3 60 1.7 35.1 0
01:30 1022 30.18 851 25.13 9.1 48.4 60 1.8 35.2 0
01:31 1022 30.18 851 25.13 9 48.2 61 1.9 35.5 0
01:32 1022 30.18 851 25.13 8.9 48 62 2 35.6 0
01:33 1022 30.18 851 25.13 8.6 47.6 63 2 35.6 0
01:34 1022 30.18 851 25.13 8.4 47.2 64 2 35.5 0
01:35 1022 30.18 851 25.13 8.2 46.7 65 2 35.6 0
01:36 1022 30.18 851 25.13 7.9 46.3 67 2.2 36 0
01:37 1022 30.18 851 25.13 7.6 45.7 68 2.1 35.8 0
01:38 1022 30.18 851 25.13 7.5 45.5 67 1.7 35 0
01:39 1022 30.18 851 25.13 7.5 45.6 66 1.6 34.8 0
01:40 1022 30.18 851 25.13 7.6 45.7 65 1.5 34.8 0
01:41 1022 30.18 851 25.13 7.8 46 63 1.3 34.3 0
01:42 1022 30.18 851 25.13 7.9 46.3 63 1.4 34.5 0
01:43 1022 30.18 851 25.13 8.1 46.6 61 1.1 34 0
01:44 1022 30.18 851 25.13 8.3 46.9 62 1.5 34.7 0
01:45 1022 30.18 851 25.13 8.3 46.9 62 1.4 34.6 0
01:46 1022 30.18 851 25.13 8.3 47 62 1.6 34.8 0
01:47 1022 30.18 851 25.13 8.3 46.9 63 1.7 35 0
01:48 1022 30.18 851 25.13 8.3 46.9 63 1.6 34.8 0
01:49 1022 30.18 851 25.13 8.2 46.8 64 2 35.5 0
01:50 1022 30.18 851 25.13 8.1 46.5 64 1.8 35.2 0
01:51 1022 30.18 851 25.13 8 46.3 66 2 35.7 0
01:52 1022 30.18 851 25.13 7.8 46 67 2.1 35.7 0
01:53 1022 30.18 851 25.13 7.6 45.6 68 2.1 35.8 0
01:54 1022 30.18 851 25.13 7.4 45.3 69 2.1 35.8 0
01:55 1022 30.18 851 25.13 7.3 45.1 69 1.9 35.5 0
01:56 1022 30.18 851 25.13 7.3 45.2 68 1.9 35.4 0
01:57 1022 30.18 851 25.13 7.4 45.2 69 2.1 35.7 0
01:58 1022 30.18 851 25.13 7.3 45.1 69 1.9 35.4 0
01:59 1022 30.18 851 25.13 7.3 45.1 68 1.9 35.4 0
02:00 1022 30.18 851 25.13 7.4 45.2 67 1.6 34.9 0
02:01 1022 30.18 851 25.13 7.6 45.6 65 1.4 34.6 0
02:02 1022 30.18 851 25.13 7.8 46 64 1.5 34.6 0
02:03 1022 30.18 851 25.13 8 46.4 63 1.4 34.5 0
02:04 1022 30.18 851 25.13 8.2 46.7 62 1.3 34.3 0
02:05 1022 30.18 851 25.13 8.4 47.1 60 1.2 34.1 0
02:06 1022 30.18 851 25.13 8.6 47.5 60 1.4 34.5 0
02:07 1022 30.18 851 25.13 8.7 47.6 61 1.5 34.8 0
02:08 1022 30.18 851 25.13 8.7 47.7 61 1.6 34.9 0
02:09 1022 30.18 851 25.13 8.6 47.5 62 1.8 35.3 0
02:10 1022 30.18 851 25.13 8.5 47.3 63 1.9 35.3 0
02:11 1022 30.18 851 25.13 8.4 47.1 63 1.9 35.4 0
02:12 1022 30.18 851 25.13 8.2 46.8 64 1.9 35.4 0
02:13 1022 30.18 851 25.13 8.2 46.7 65 2 35.6 0
02:14 1022 30.18 851 25.13 8 46.3 67 2.2 35.9 0
02:15 1022 30.18 851 25.13 7.7 45.9 68 2.3 36.1 0
02:16 1022 30.18 851 25.13 7.4 45.3 69 2.2 35.9 0
02:17 1022 30.18 851 25.13 7.3 45.1 70 2.2 35.9 0
02:18 1022 30.18 851 25.13 7.2 45 71 2.3 36.1 0
02:19 1022 30.18 851 25.13 7 44.6 72 2.3 36.2 0
02:20 1022 30.18 851 25.13 6.9 44.5 73 2.3 36.2 0
02:21 1022 30.18 851 25.13 6.8 44.3 73 2.4 36.3 0
02:22 1022 30.18 851 25.13 6.8 44.2 74 2.4 36.3 0
02:23 1022 30.18 851 25.13 6.7 44.1 74 2.4 36.2 0
02:24 1022 30.18 851 25.13 6.7 44 74 2.4 36.4 0
02:25 1022 30.18 851 25.13 6.5 43.7 76 2.5 36.5 0
02:26 1022 30.18 851 25.13 6.4 43.4 76 2.4 36.4 0
02:27 1022 30.18 851 25.13 6.2 43.2 76 2.3 36.1 0
02:28 1022 30.18 851 25.13 6.2 43.2 76 2.3 36.1 0
02:29 1022 30.18 851 25.13 6.3 43.3 75 2.2 36 0
02:30 1022 30.18 851 25.13 6.4 43.5 73 2 35.6 0
02:31 1022 30.18 851 25.13 6.4 43.6 73 1.9 35.4 0
02:32 1022 30.18 851 25.13 6.6 43.8 72 1.8 35.3 0
02:33 1022 30.18 851 25.13 6.7 44.1 71 1.8 35.2 0
02:34 1022 30.18 851 25.13 6.8 44.2 70 1.8 35.2 0
02:35 1022 30.18 851 25.13 6.8 44.2 70 1.8 35.2 0
02:36 1022 30.18 851 25.13 6.8 44.3 70 1.7 35.1 0
02:37 1022 30.18 851 25.13 6.8 44.3 70 1.8 35.2 0
02:38 1022 30.18 851 25.13 6.8 44.2 70 1.6 35 0
02:39 1022 30.18 851 25.13 6.9 44.4 70 1.8 35.2 0
02:40 1022 30.18 851 25.13 6.9 44.5 69 1.6 34.9 0
02:41 1022 30.18 851 25.13 7.1 44.8 67 1.3 34.4 0
02:42 1022 30.18 851 25.13 7.3 45.2 67 1.5 34.8 0
02:43 1022 30.18 851 25.13 7.4 45.3 67 1.6 34.8 0
02:44 1022 30.18 851 25.13 7.4 45.2 67 1.7 35 0
02:45 1022 30.18 851 25.13 7.3 45.1 66 1.4 34.6 0
02:46 1022 30.18 851 25.13 7.4 45.4 66 1.5 34.7 0
02:47 1022 30.18 851 25.13 7.4 45.4 67 1.8 35.3 0
02:48 1022 30.18 851 25.13 7.3 45.1 68 1.7 35.1 0
02:49 1022 30.18 851 25.13 7.1 44.8 69 1.8 35.2 0
02:50 1022 30.18 851 25.13 7 44.6 69 1.8 35.3 0
02:51 1022 30.18 851 25.13 6.9 44.4 70 1.8 35.3 0
02:52 1022 30.18 851 25.13 6.8 44.2 70 1.7 35.1 0
02:53 1022 30.18 851 25.13 6.8 44.3 70 1.7 35 0
02:54 1022 30.18 851 25.13 6.9 44.4 69 1.7 35 0
02:55 1022 30.18 851 25.13 6.8 44.3 69 1.5 34.8 0
02:56 1022 30.18 851 25.13 6.9 44.5 68 1.5 34.7 0
02:57 1022 30.18 851 25.13 7.1 44.7 68 1.5 34.8 0
02:58 1022 30.18 851 25.13 7.1 44.9 68 1.6 34.8 0
02:59 1022 30.18 851 25.13 7.2 45 67 1.5 34.8 0
03:00 1022 30.18 851 25.13 7.3 45.1 67 1.5 34.7 0
03:01 1022 30.18 851 25.13 7.3 45.2 67 1.6 34.8 0
03:02 1022 30.18 851 25.13 7.3 45.2 66 1.5 34.7 0
03:03 1022 30.18 851 25.13 7.4 45.4 67 1.7 35 0
03:04 1022 30.18 851 25.13 7.4 45.3 67 1.7 35.1 0
03:05 1022 30.18 851 25.13 7.4 45.2 66 1.4 34.6 0
03:06 1022 30.18 851 25.13 7.5 45.4 65 1.4 34.5 0
03:07 1022 30.18 851 25.13 7.5 45.5 65 1.4 34.5 0
03:08 1022 30.18 851 25.13 7.5 45.5 66 1.6 34.8 0
03:09 1022 30.18 851 25.13 7.3 45.1 67 1.7 35 0
03:10 1022 30.18 851 25.13 7 44.6 70 1.9 35.3 0
03:11 1022 30.18 851 25.13 6.5 43.8 72 1.8 35.3 0
03:12 1022 30.18 851 25.13 6.1 43 74 1.9 35.4 0
03:13 1022 30.18 851 25.13 5.8 42.5 75 1.7 35.1 0
03:14 1022 30.18 851 25.13 5.8 42.5 74 1.6 34.8 0
03:15 1022 30.18 851 25.13 6 42.7 72 1.3 34.3 0
03:16 1022 30.18 851 25.13 6.3 43.4 70 1.3 34.3 0
03:17 1022 30.18 851 25.13 6.6 43.9 69 1.4 34.6 0
03:18 1022 30.18 851 25.13 6.6 44 70 1.5 34.8 0
03:19 1022 30.18 851 25.13 6.6 43.8 70 1.5 34.8 0
03:20 1022 30.18 851 25.13 6.5 43.7 71 1.6 34.8 0
03:21 1022 30.18 851 25.13 6.4 43.5 70 1.4 34.6 0
03:22 1022 30.18 851 25.13 6.5 43.7 68 1.2 34.1 0
03:23 1022 30.18 851 25.13 6.8 44.2 68 1.2 34.1 0
03:24 1022 30.18 851 25.13 7 44.5 69 1.6 34.9 0
03:25 1022 30.18 851 25.13 6.8 44.2 70 1.8 35.2 0
03:26 1022 30.18 851 25.13 6.4 43.5 71 1.6 34.8 0
03:27 1022 30.18 851 25.13 6.4 43.5 71 1.6 34.8 0
03:28 1022 30.18 851 25.13 6.4 43.6 71 1.6 34.9 0
03:29 1022 30.18 851 25.13 6.4 43.5 72 1.7 35 0
03:30 1022 30.18 851 25.13 6.3 43.3 72 1.7 35 0
03:31 1022 30.18 851 25.13 6.2 43.2 72 1.6 35 0
03:32 1022 30.18 851 25.13 6.3 43.4 72 1.6 34.9 0
03:33 1022 30.18 851 25.13 6.3 43.4 72 1.6 34.9 0
03:34 1022 30.18 851 25.13 6.4 43.5 72 1.7 35 0
03:35 1022 30.18 851 25.13 6.5 43.6 71 1.7 35 0
03:36 1022 30.18 851 25.13 6.6 43.8 70 1.6 34.9 0
03:37 1022 30.18 851 25.13 6.7 44 71 1.7 35.1 0
03:38 1022 30.18 851 25.13 6.6 43.9 71 1.8 35.3 0
03:39 1022 30.18 851 25.13 6.5 43.7 71 1.7 35 0
03:40 1022 30.18 851 25.13 6.6 43.9 70 1.6 34.9 0
03:41 1022 30.18 851 25.13 6.5 43.8 71 1.7 35 0
03:42 1022 30.18 851 25.13 6.5 43.8 71 1.7 35 0
03:43 1022 30.18 851 25.13 6.4 43.6 71 1.7 35 0
03:44 1022 30.18 851 25.13 6.4 43.5 71 1.6 34.9 0
03:45 1022 30.18 851 25.13 6.4 43.5 71 1.6 34.8 0
03:46 1022 30.18 851 25.13 6.3 43.4 72 1.6 35 0
03:47 1022 30.18 851 25.13 6.2 43.2 73 1.7 35.1 0
03:48 1022 30.18 851 25.13 6.2 43.1 73 1.8 35.2 0
03:49 1022 30.18 851 25.13 6.1 43 73 1.6 34.9 0
03:50 1022 30.18 851 25.13 6.2 43.2 73 1.7 35 0
03:51 1022 30.18 851 25.13 6.2 43.2 73 1.7 35 0
03:52 1022 30.18 851 25.13 6.3 43.4 72 1.7 35.1 0
03:53 1022 30.18 851 25.13 6.3 43.4 72 1.7 35.1 0
03:54 1022 30.18 851 25.13 6.4 43.6 72 1.7 35.1 0
03:55 1022 30.18 851 25.13 6.5 43.7 71 1.7 35 0
03:56 1022 30.18 851 25.13 6.6 43.8 71 1.7 35 0
03:57 1022 30.18 851 25.13 6.6 43.9 70 1.6 34.9 0
03:58 1022 30.18 851 25.13 6.7 44.1 70 1.6 34.9 0
03:59 1022 30.18 851 25.13 6.8 44.3 69 1.5 34.8 0
04:00 1022 30.18 851 25.13 6.9 44.4 70 1.7 35.1 0
04:01 1022 30.18 851 25.13 6.8 44.2 71 1.9 35.4 0
04:02 1022 30.18 851 25.13 6.5 43.7 72 1.8 35.2 0
04:03 1022 30.18 851 25.13 6.3 43.4 72 1.7 35.1 0
04:04 1022 30.18 851 25.13 6.3 43.4 73 1.9 35.3 0
04:05 1022 30.18 851 25.13 6.2 43.2 74 1.9 35.5 0
04:06 1022 30.18 851 25.13 6.2 43.1 74 2 35.6 0
04:07 1022 30.18 851 25.13 6.1 43 75 2 35.5 0
04:08 1022 30.18 851 25.13 6.1 42.9 75 1.9 35.5 0
04:09 1022 30.18 851 25.13 6 42.9 75 2 35.6 0
04:10 1022 30.18 851 25.13 5.9 42.7 76 2 35.6 0
04:11 1022 30.18 851 25.13 5.9 42.6 76 2 35.6 0
04:12 1022 30.18 851 25.13 5.9 42.5 76 2 35.6 0
04:13 1022 30.18 851 25.13 5.8 42.4 77 2 35.6 0
04:14 1022 30.18 851 25.13 5.7 42.2 77 2 35.6 0
04:15 1022 30.18 851 25.13 5.7 42.3 76 1.9 35.3 0
04:16 1022 30.18 851 25.13 5.8 42.5 76 1.8 35.3 0
04:17 1022 30.18 851 25.13 5.8 42.5 76 1.9 35.4 0
04:18 1022 30.18 851 25.13 5.7 42.3 76 1.9 35.4 0
04:19 1022 30.18 851 25.13 5.8 42.4 76 1.8 35.3 0
04:20 1022 30.18 851 25.13 5.8 42.5 75 1.8 35.3 0
04:21 1022 30.18 851 25.13 5.8 42.5 75 1.8 35.2 0
04:22 1022 30.18 851 25.13 5.8 42.5 76 1.9 35.4 0
04:23 1022 30.18 851 25.13 5.7 42.3 77 1.9 35.5 0
04:24 1022 30.18 851 25.13 5.7 42.2 76 1.9 35.4 0
04:25 1022 30.18 851 25.13 5.6 42 77 2 35.5 0
04:26 1022 30.18 851 25.13 5.4 41.6 78 1.8 35.3 0
04:27 1022 30.18 851 25.13 5.5 41.8 77 1.7 35.1 0
04:28 1022 30.18 851 25.13 5.8 42.4 74 1.6 34.9 0
04:29 1022 30.18 851 25.13 6 42.8 75 1.9 35.4 0
04:30 1022 30.18 851 25.13 5.8 42.4 76 2 35.5 0
04:31 1022 30.18 851 25.13 5.6 42.1 77 1.9 35.5 0
04:32 1022 30.18 851 25.13 5.4 41.7 78 1.9 35.4 0
04:33 1022 30.18 851 25.13 5.3 41.5 79 1.9 35.4 0
04:34 1022 30.18 851 25.13 5.3 41.5 78 1.7 35.1 0
04:35 1022 30.18 851 25.13 5.5 41.9 76 1.6 34.9 0
04:36 1022 30.18 851 25.13 5.8 42.4 75 1.6 35 0
04:37 1022 30.18 851 25.13 5.8 42.5 75 1.8 35.2 0
04:38 1022 30.18 851 25.13 5.6 42.1 76 1.8 35.2 0
04:39 1022 30.18 851 25.13 5.3 41.6 78 1.8 35.2 0
04:40 1022 30.18 851 25.13 5.3 41.5 77 1.6 34.9 0
04:41 1022 30.18 851 25.13 5.4 41.7 77 1.7 35 0
04:42 1022 30.18 851 25.13 5.4 41.8 76 1.6 34.9 0
04:43 1022 30.18 851 25.13 5.4 41.7 77 1.6 34.9 0
04:44 1022 30.18 851 25.13 5.5 41.8 75 1.5 34.6 0
04:45 1022 30.18 851 25.13 5.4 41.8 76 1.6 34.8 0
04:46 1022 30.18 851 25.13 5.3 41.5 76 1.4 34.6 0
04:47 1022 30.18 851 25.13 5.6 42 74 1.4 34.5 0
04:48 1022 30.18 851 25.13 5.7 42.3 73 1.4 34.4 0
04:49 1022 30.18 851 25.13 5.9 42.6 73 1.4 34.6 0
04:50 1022 30.18 851 25.13 5.9 42.6 74 1.5 34.7 0
04:51 1022 30.18 851 25.13 5.8 42.4 74 1.4 34.6 0
04:52 1022 30.18 851 25.13 5.8 42.4 74 1.4 34.6 0
04:53 1022 30.18 851 25.13 5.8 42.4 74 1.5 34.6 0
04:54 1022 30.18 851 25.13 5.6 42.1 75 1.5 34.7 0
04:55 1022 30.18 851 25.13 5.5 41.8 76 1.6 34.8 0
04:56 1022 30.18 851 25.13 5.3 41.6 77 1.7 35 0
04:57 1022 30.18 851 25.13 5.2 41.3 79 1.8 35.2 0
04:58 1022 30.18 851 25.13 5.1 41.2 79 1.8 35.2 0
04:59 1022 30.18 851 25.13 5.2 41.3 78 1.6 34.9 0
05:00 1022 30.18 851 25.13 5.3 41.6 77 1.6 34.9 0
05:01 1022 30.18 851 25.13 5.5 41.9 76 1.6 34.9 0
05:02 1022 30.18 851 25.13 5.5 41.9 76 1.6 34.9 0
05:03 1022 30.18 851 25.13 5.4 41.8 76 1.6 34.9 0
05:04 1022 30.18 851 25.13 5.3 41.6 77 1.6 34.9 0
05:05 1022 30.18 851 25.13 5.2 41.4 77 1.6 34.9 0
05:06 1022 30.18 851 25.13 5.1 41.2 78 1.7 35 0
05:07 1022 30.18 851 25.13 5 41.1 79 1.7 35 0
05:08 1022 30.18 851 25.13 5 41 79 1.7 35.1 0
05:09 1022 30.18 851 25.13 5 41 79 1.7 35 0
05:10 1022 30.18 851 25.13 5 40.9 79 1.7 35 0
05:11 1022 30.18 851 25.13 5 41 79 1.6 34.9 0
05:12 1022 30.18 851 25.13 5 41.1 78 1.6 34.8 0
05:13 1022 30.18 851 25.13 5.1 41.1 78 1.5 34.7 0
05:14 1022 30.18 851 25.13 5 41 78 1.6 34.8 0
05:15 1022 30.18 851 25.13 5 41 78 1.6 34.8 0
05:16 1022 30.18 851 25.13 5 41 79 1.6 34.8 0
05:17 1022 30.18 851 25.13 4.9 40.9 79 1.5 34.8 0
05:18 1022 30.18 851 25.13 5 41.1 78 1.6 34.9 0
05:19 1022 30.18 851 25.13 5.1 41.1 78 1.6 34.9 0
05:20 1022 30.18 851 25.13 5.1 41.2 78 1.7 35 0
05:21 1022 30.18 851 25.13 5.1 41.3 78 1.7 35 0
05:22 1022 30.18 851 25.13 5.2 41.3 78 1.6 35 0
05:23 1022 30.18 851 25.13 5.2 41.3 78 1.7 35 0
05:24 1022 30.18 851 25.13 5.2 41.3 78 1.7 35.1 0
05:25 1022 30.18 851 25.13 5.1 41.1 79 1.7 35 0
05:26 1022 30.18 851 25.13 5 41 78 1.6 34.9 0
05:27 1022 30.18 851 25.13 4.9 40.9 79 1.5 34.8 0
05:28 1022 30.18 851 25.13 4.9 40.9 78 1.5 34.7 0
05:29 1022 30.18 851 25.13 5 41 78 1.4 34.5 0
05:30 1022 30.18 851 25.13 5.1 41.2 77 1.4 34.5 0
05:31 1022 30.18 851 25.13 5.2 41.3 76 1.3 34.3 0
05:32 1022 30.18 851 25.13 5.2 41.4 76 1.3 34.3 0
05:33 1022 30.18 851 25.13 5.2 41.4 76 1.3 34.3 0
05:34 1022 30.18 851 25.13 5.2 41.3 75 1.2 34.1 0
05:35 1022 30.18 851 25.13 5.1 41.2 76 1.2 34.1 0
05:36 1022 30.18 851 25.13 5.2 41.3 75 1.1 33.9 0
05:37 1022 30.18 851 25.13 5.2 41.4 75 1.1 34 0
05:38 1022 30.18 851 25.13 5.1 41.2 76 1.1 34.1 0
05:39 1022 30.18 851 25.13 4.9 40.8 78 1.3 34.3 0
05:40 1022 30.18 851 25.13 4.9 40.8 78 1.3 34.4 0
05:41 1022 30.18 851 25.13 5 40.9 77 1.2 34.2 0
05:42 1022 30.18 851 25.13 4.9 40.8 77 1.3 34.3 0
05:43 1022 30.18 851 25.13 4.8 40.7 77 1.1 34 0
05:44 1022 30.18 851 25.13 4.5 40.1 79 1.1 34 0
05:45 1022 30.18 851 25.13 4.2 39.6 81 1.2 34.2 0
05:46 1022 30.18 851 25.13 4.1 39.3 80 0.9 33.6 0
05:47 1022 30.18 851 25.13 3.9 39 81 1 33.7 0
05:48 1022 30.18 851 25.13 3.8 38.9 83 1.1 34.1 0
05:49 1022 30.18 851 25.13 4 39.2 82 1.2 34.2 0
05:50 1022 30.18 851 25.13 4.5 40.1 80 1.3 34.3 0
05:51 1022 30.18 851 25.13 4.8 40.6 77 1.2 34.1 0
05:52 1022 30.18 851 25.13 4.9 40.7 77 1.2 34.2 0
05:53 1022 30.18 851 25.13 4.8 40.6 78 1.3 34.3 0
05:54 1022 30.18 851 25.13 4.8 40.6 78 1.2 34.2 0
05:55 1022 30.18 851 25.13 4.8 40.6 78 1.2 34.2 0
05:56 1022 30.18 851 25.13 4.8 40.7 78 1.3 34.3 0
05:57 1022 30.18 851 25.13 4.8 40.7 78 1.3 34.3 0
05:58 1022 30.18 851 25.13 4.8 40.7 78 1.2 34.2 0
05:59 1022 30.18 851 25.13 4.8 40.6 78 1.3 34.3 0
06:00 1022 30.18 851 25.13 4.8 40.6 78 1.3 34.3 0
06:01 1022 30.18 851 25.13 4.8 40.6 78 1.2 34.2 0
06:02 1022 30.18 851 25.13 4.8 40.6 78 1.2 34.2 0
06:03 1022 30.18 851 25.13 4.8 40.6 78 1.2 34.1 0
06:04 1022 30.18 851 25.13 4.7 40.5 77 1.1 34 0
06:05 1022 30.18 851 25.13 4.8 40.7 77 1.2 34.1 0
06:06 1022 30.18 851 25.13 4.9 40.8 77 1.2 34.1 0
06:07 1022 30.18 851 25.13 4.8 40.6 77 1.2 34.2 0
06:08 1022 30.18 851 25.13 4.7 40.5 78 1.1 34 0
06:09 1022 30.18 851 25.13 4.7 40.4 78 1.2 34.2 0
06:10 1022 30.18 851 25.13 4.6 40.3 79 1.2 34.2 0
06:11 1022 30.18 851 25.13 4.6 40.3 77 1 33.8 0
06:12 1022 30.18 851 25.13 4.5 40.1 78 1.1 33.9 0
06:13 1022 30.18 851 25.13 4.5 40.2 78 1 33.8 0
06:14 1022 30.18 851 25.13 4.7 40.4 76 0.9 33.6 0
06:15 1022 30.18 851 25.13 4.6 40.2 77 0.9 33.6 0
06:16 1022 30.18 851 25.13 4.5 40.1 77 0.9 33.6 0
06:17 1022 30.18 851 25.13 4.7 40.5 76 0.9 33.5 0
06:18 1022 30.18 851 25.13 5 41 75 0.9 33.6 0
06:19 1022 30.18 851 25.13 5 41 75 0.9 33.7 0
06:20 1022 30.18 851 25.13 5.1 41.1 75 1 33.8 0
06:21 1022 30.18 851 25.13 5.1 41.2 75 1 33.8 0
06:22 1022 30.18 851 25.13 5.2 41.3 74 1 33.8 0
06:23 1022 30.18 851 25.13 5.3 41.5 74 1 33.8 0
06:24 1022 30.18 851 25.13 5.3 41.5 74 1.1 34 0
06:25 1022 30.18 851 25.13 5.1 41.3 75 1.1 34.1 0
06:26 1022 30.18 851 25.13 5 40.9 77 1.2 34.1 0
06:27 1022 30.18 851 25.13 4.8 40.6 77 1.1 34 0
06:28 1022 30.18 851 25.13 4.6 40.3 78 1.1 34 0
06:29 1022 30.18 851 25.13 4.4 39.9 79 1 33.9 0
06:30 1022 30.18 851 25.13 4.1 39.4 80 1 33.8 0
06:31 1022 30.18 851 25.13 3.9 39.1 82 1.1 34.1 0
06:32 1022 30.18 851 25.13 3.9 39.1 82 1.1 34.1 0
06:33 1022 30.18 851 25.13 4.2 39.6 80 1.1 33.9 0
06:34 1022 30.18 851 25.13 4.6 40.2 78 1.1 33.9 0
06:35 1022 30.18 851 25.13 4.7 40.5 77 1.1 34 0
06:36 1022 30.18 851 25.13 4.8 40.6 77 1.1 33.9 0
06:37 1022 30.18 851 25.13 4.9 40.8 77 1.1 34 0
06:38 1022 30.18 851 25.13 5 41 76 1.2 34.1 0
06:39 1022 30.18 851 25.13 5 41.1 76 1.2 34.2 0
06:40 1022 30.18 851 25.13 5 41.1 76 1.2 34.1 0
06:41 1022 30.18 851 25.13 5.1 41.1 76 1.2 34.2 0
06:42 1022 30.18 851 25.13 5 41 77 1.3 34.3 0
06:43 1022 30.18 851 25.13 4.9 40.7 78 1.3 34.3 0
06:44 1022 30.18 851 25.13 4.8 40.6 78 1.3 34.3 0
06:45 1022 30.18 851 25.13 4.8 40.6 78 1.3 34.3 0
06:46 1022 30.18 851 25.13 4.9 40.8 78 1.4 34.5 0
06:47 1022 30.18 851 25.13 5 40.9 78 1.5 34.6 0
06:48 1022 30.18 851 25.13 5 41.1 78 1.5 34.7 0
06:49 1022 30.18 851 25.13 5.1 41.2 78 1.6 34.9 0
06:50 1022 30.18 851 25.13 5.2 41.3 78 1.7 35.1 0
06:51 1022 30.18 851 25.13 5.2 41.3 78 1.6 34.9 0
06:52 1022 30.18 851 25.13 5.3 41.6 77 1.6 34.9 0
06:53 1022 30.18 851 25.13 5.5 41.9 77 1.7 35.1 0
06:54 1022 30.18 851 25.13 5.6 42 77 1.9 35.4 0
06:55 1022 30.18 851 25.13 5.5 41.9 78 2.1 35.7 0
06:56 1022 30.18 852 25.16 5.4 41.7 78 1.9 35.4 0
06:57 1022 30.18 852 25.16 5.3 41.6 78 1.9 35.4 0
06:58 1022 30.18 851 25.13 5.4 41.7 78 1.9 35.4 0
06:59 1022 30.18 852 25.16 5.4 41.7 80 2.3 36.1 0
07:00 1022 30.18 851 25.13 5.3 41.6 81 2.3 36.2 0
07:01 1022 30.18 852 25.16 5.2 41.4 82 2.4 36.3 0
07:02 1022 30.18 852 25.16 5.2 41.3 82 2.4 36.4 0
07:03 1022 30.18 852 25.16 5.1 41.3 82 2.4 36.2 0
07:04 1022 30.18 852 25.16 5.2 41.4 82 2.4 36.3 0
07:05 1022 30.18 852 25.16 5.2 41.4 83 2.5 36.5 0
07:06 1022 30.18 852 25.16 5.3 41.5 83 2.5 36.6 0
07:07 1022 30.18 852 25.16 5.4 41.6 82 2.6 36.7 0
07:08 1022 30.18 852 25.16 5.5 41.8 82 2.7 36.8 0
07:09 1022 30.18 852 25.16 5.5 41.9 83 2.8 37 0
07:10 1022 30.18 852 25.16 5.5 42 83 2.8 37.1 0
07:11 1022 30.18 852 25.16 5.6 42.1 83 2.9 37.3 0
07:12 1022 30.18 852 25.16 5.7 42.2 83 3 37.4 0
07:13 1022 30.18 852 25.16 5.8 42.4 83 3.2 37.7 0
07:14 1022 30.18 852 25.16 5.9 42.5 83 3.2 37.7 0
07:15 1022 30.18 852 25.16 6 42.8 83 3.3 37.9 0
07:16 1022 30.18 852 25.16 6.1 43 82 3.3 38 0
07:17 1022 30.18 852 25.16 6.3 43.3 81 3.2 37.8 0
07:18 1022 30.18 852 25.16 6.4 43.5 81 3.3 38 0
07:19 1022 30.18 852 25.16 6.6 43.8 80 3.3 37.9 0
07:20 1022 30.18 852 25.16 6.7 44.1 79 3.4 38 0
07:21 1022 30.18 852 25.16 6.9 44.4 78 3.4 38.2 0
07:22 1022 30.18 852 25.16 7 44.7 78 3.4 38.1 0
07:23 1022 30.18 852 25.16 7.2 44.9 78 3.6 38.5 0
07:24 1022 30.18 852 25.16 7.3 45.2 78 3.7 38.7 0
07:25 1023 30.21 852 25.16 7.4 45.4 77 3.6 38.5 0
07:26 1023 30.21 852 25.16 7.6 45.7 78 3.9 39.1 0
07:27 1022 30.18 852 25.16 7.7 45.9 79 4.4 39.9 0
07:28 1023 30.21 852 25.16 7.9 46.2 79 4.5 40 0
07:29 1023 30.21 852 25.16 8.1 46.5 77 4.4 39.9 0
07:30 1023 30.21 852 25.16 8.3 46.9 76 4.3 39.8 0
07:31 1023 30.21 852 25.16 8.4 47.2 75 4.4 39.8 0
07:32 1023 30.21 852 25.16 8.6 47.5 76 4.6 40.2 0
07:33 1023 30.21 852 25.16 8.8 47.8 75 4.6 40.2 0
07:34 1023 30.21 852 25.16 9 48.2 73 4.5 40.1 0
07:35 1023 30.21 852 25.16 9.2 48.5 72 4.3 39.7 0
07:36 1023 30.21 852 25.16 9.3 48.7 72 4.5 40.1 0
07:37 1023 30.21 852 25.16 9.4 48.9 71 4.4 39.9 0
07:38 1023 30.21 852 25.16 9.5 49 70 4.3 39.8 0
07:39 1023 30.21 852 25.16 9.5 49.1 70 4.4 39.9 0
07:40 1023 30.21 852 25.16 9.5 49.2 72 4.8 40.7 0
07:41 1023 30.21 852 25.16 9.6 49.3 70 4.4 39.8 0
07:42 1023 30.21 852 25.16 9.7 49.4 70 4.5 40.1 0
07:43 1023 30.21 852 25.16 9.8 49.6 70 4.6 40.3 0
07:44 1023 30.21 852 25.16 9.9 49.8 68 4.4 39.9 0
07:45 1023 30.21 852 25.16 10.1 50.1 69 4.7 40.5 0
07:46 1023 30.21 852 25.16 10.1 50.2 67 4.3 39.7 0
07:47 1023 30.21 852 25.16 10.2 50.4 67 4.5 40 0
07:48 1023 30.21 852 25.16 10.3 50.6 70 5.1 41.1 0
07:49 1023 30.21 852 25.16 10.5 50.8 68 4.8 40.7 0
07:50 1023 30.21 852 25.16 10.6 51.1 66 4.5 40.1 0
07:51 1023 30.21 852 25.16 10.8 51.4 67 4.9 40.8 0
07:52 1023 30.21 852 25.16 10.9 51.6 67 5 41 0
07:53 1023 30.21 852 25.16 11 51.7 63 4.3 39.7 0
07:54 1023 30.21 852 25.16 11 51.9 65 4.7 40.4 0
07:55 1023 30.21 852 25.16 11.1 52 65 4.9 40.8 0
07:56 1023 30.21 852 25.16 11.3 52.3 63 4.5 40 0
07:57 1023 30.21 852 25.16 11.3 52.4 64 4.7 40.5 0
07:58 1023 30.21 852 25.16 11.4 52.6 63 4.7 40.4 0
07:59 1023 30.21 852 25.16 11.5 52.6 64 4.9 40.8 0
08:00 1023 30.21 852 25.16 11.5 52.8 63 4.7 40.4 0
08:01 1023 30.21 852 25.16 11.7 53 63 5 40.9 0
08:02 1023 30.21 852 25.16 11.8 53.2 65 5.5 41.8 0
08:03 1023 30.21 852 25.16 11.9 53.4 62 5 41 0
08:04 1023 30.21 852 25.16 12.1 53.7 61 4.7 40.5 0
08:05 1023 30.21 852 25.16 12.1 53.8 61 4.9 40.8 0
08:06 1023 30.21 852 25.16 12.2 53.9 62 5.1 41.2 0
08:07 1023 30.21 852 25.16 12.1 53.8 58 4.2 39.6 0
08:08 1023 30.21 852 25.16 12.2 53.9 63 5.4 41.7 0
08:09 1023 30.21 852 25.16 12.2 54 59 4.5 40 0
08:10 1023 30.21 852 25.16 12.3 54.2 61 5 40.9 0
08:11 1023 30.21 852 25.16 12.4 54.3 60 4.8 40.7 0
08:12 1023 30.21 852 25.16 12.5 54.4 61 5.1 41.3 0
08:13 1023 30.21 852 25.16 12.5 54.5 57 4.3 39.8 0
08:14 1023 30.21 852 25.16 12.5 54.5 57 4.2 39.6 0
08:15 1023 30.21 852 25.16 12.6 54.6 57 4.2 39.6 0
08:16 1023 30.21 852 25.16 12.6 54.7 56 4 39.3 0
08:17 1023 30.21 852 25.16 12.6 54.7 56 4.2 39.5 0
08:18 1023 30.21 852 25.16 12.7 54.8 59 5 40.9 0
08:19 1023 30.21 852 25.16 12.8 55.1 54 3.9 39.1 0
08:20 1023 30.21 852 25.16 13.1 55.5 58 5.1 41.2 0
08:21 1023 30.21 852 25.16 13.1 55.7 54 4.2 39.6 0
08:22 1023 30.21 852 25.16 13.1 55.6 53 3.8 38.8 0
08:23 1023 30.21 852 25.16 13.1 55.6 54 4.1 39.3 0
08:24 1023 30.21 852 25.16 13.2 55.7 52 3.6 38.5 0
08:25 1023 30.21 852 25.16 13.3 55.9 54 4.2 39.5 0
08:26 1023 30.21 852 25.16 13.4 56 54 4.4 39.9 0
08:27 1023 30.21 852 25.16 13.4 56.1 61 6.2 43.1 0
08:28 1023 30.21 852 25.16 13.5 56.2 56 5.1 41.1 0
08:29 1023 30.21 852 25.16 13.6 56.4 54 4.4 39.9 0
08:30 1023 30.21 852 25.16 13.7 56.6 52 4.1 39.3 0
08:31 1023 30.21 852 25.16 13.8 56.8 53 4.4 39.9 0
08:32 1023 30.21 852 25.16 14 57.1 51 4.1 39.3 0
08:33 1023 30.21 852 25.16 14.1 57.5 50 3.9 39.1 0
08:34 1023 30.21 852 25.16 14.3 57.8 50 4 39.3 0
08:35 1023 30.21 852 25.16 14.5 58.2 48 3.6 38.5 0
08:36 1023 30.21 852 25.16 14.8 58.7 51 5 40.9 0
08:37 1023 30.21 852 25.16 15.1 59.2 45 3.4 38.2 0
08:38 1023 30.21 852 25.16 15.3 59.5 49 4.8 40.7 0
08:39 1023 30.21 852 25.16 15.4 59.7 49 4.9 40.8 0
08:40 1023 30.21 852 25.16 15.3 59.5 45 3.5 38.3 0
08:41 1023 30.21 852 25.16 15.1 59.2 49 4.4 40 0
08:42 1023 30.21 852 25.16 15 58.9 46 3.6 38.5 0
08:43 1023 30.21 852 25.16 14.9 58.8 46 3.3 38 0
08:44 1023 30.21 852 25.16 14.8 58.7 47 3.6 38.5 0
08:45 1023 30.21 852 25.16 14.9 58.7 50 4.5 40.2 0
08:46 1023 30.21 852 25.16 15 59 49 4.6 40.2 0
08:47 1023 30.21 852 25.16 15.1 59.2 51 5.2 41.3 0
08:48 1023 30.21 852 25.16 15.4 59.7 53 5.8 42.5 0
08:49 1023 30.21 852 25.16 15.6 60.1 51 5.7 42.3 0
08:50 1023 30.21 852 25.16 15.7 60.2 44 3.6 38.5 0
08:51 1023 30.21 852 25.16 15.6 60.2 44 3.6 38.5 0
08:52 1023 30.21 852 25.16 15.5 59.9 48 4.7 40.4 0
08:53 1023 30.21 852 25.16 15.4 59.6 42 2.6 36.6 0
08:54 1023 30.21 852 25.16 15.2 59.3 44 3.2 37.7 0
08:55 1023 30.21 852 25.16 15 59.1 43 2.6 36.8 0
08:56 1023 30.21 852 25.16 14.9 58.9 47 3.8 38.8 0
08:57 1023 30.21 852 25.16 14.9 58.8 47 3.7 38.7 0
08:58 1023 30.21 852 25.16 14.8 58.7 52 5.1 41.2 0
08:59 1023 30.21 852 25.16 14.9 58.7 48 4.1 39.4 0
09:00 1023 30.21 852 25.16 15 58.9 48 4.2 39.6 0
09:01 1023 30.21 852 25.16 14.9 58.9 47 3.9 38.9 0
09:02 1023 30.21 852 25.16 14.9 58.9 50 4.7 40.4 0
09:03 1023 30.21 852 25.16 14.9 58.8 54 5.8 42.4 0
09:04 1023 30.21 852 25.16 14.9 58.9 52 5.3 41.6 0
09:05 1023 30.21 852 25.16 14.8 58.7 51 4.8 40.7 0
09:06 1023 30.21 852 25.16 14.8 58.7 48 3.9 39 0
09:07 1023 30.21 852 25.16 14.8 58.7 49 4.2 39.6 0
09:08 1023 30.21 852 25.16 14.9 58.8 49 4.4 40 0
09:09 1023 30.21 852 25.16 14.9 58.8 48 4.2 39.5 0
09:10 1023 30.21 852 25.16 14.9 58.7 46 3.5 38.3 0
09:11 1023 30.21 852 25.16 14.8 58.6 46 3.4 38.1 0
09:12 1023 30.21 852 25.16 14.8 58.6 49 4.2 39.5 0
09:13 1023 30.21 852 25.16 14.9 58.8 49 4.2 39.6 0
09:14 1023 30.21 852 25.16 14.9 58.8 48 4 39.2 0
09:15 1023 30.21 852 25.16 14.9 58.8 49 4.3 39.7 0
09:16 1022 30.18 852 25.16 14.9 58.8 49 4.3 39.7 0
09:17 1022 30.18 852 25.16 14.8 58.7 49 4.3 39.7 0
09:18 1022 30.18 852 25.16 14.8 58.6 48 3.8 38.9 0
09:19 1022 30.18 852 25.16 14.9 58.7 51 5 41 0
09:20 1022 30.18 852 25.16 15 58.9 51 4.9 40.7 0
09:21 1022 30.18 852 25.16 15 59 53 5.6 42.1 0
09:22 1022 30.18 852 25.16 15.1 59.2 49 4.6 40.3 0
09:23 1022 30.18 852 25.16 15.3 59.5 48 4.5 40.2 0
09:24 1022 30.18 852 25.16 15.5 59.9 47 4.3 39.7 0
09:25 1022 30.18 852 25.16 15.7 60.3 47 4.5 40 0
09:26 1022 30.18 852 25.16 15.9 60.7 51 5.8 42.5 0
09:27 1023 30.21 852 25.16 15.9 60.6 47 4.7 40.5 0
09:28 1023 30.21 852 25.16 15.8 60.4 50 5.4 41.8 0
09:29 1023 30.21 852 25.16 15.7 60.3 44 3.7 38.7 0
09:30 1023 30.21 852 25.16 15.7 60.2 50 5.4 41.8 0
09:31 1023 30.21 852 25.16 15.7 60.2 47 4.7 40.4 0
09:32 1023 30.21 852 25.16 15.7 60.3 47 4.4 40 0
09:33 1023 30.21 852 25.16 15.6 60.1 43 3.2 37.8 0
09:34 1023 30.21 852 25.16 15.5 59.9 44 3.6 38.4 0
09:35 1023 30.21 852 25.16 15.6 60.1 49 5 40.9 0
09:36 1023 30.21 852 25.16 15.8 60.4 46 4.3 39.7 0
09:37 1023 30.21 852 25.16 15.8 60.5 46 4.2 39.6 0
09:38 1023 30.21 852 25.16 15.8 60.4 49 5.1 41.2 0
09:39 1023 30.21 852 25.16 15.7 60.3 49 5 41 0
09:40 1022 30.18 852 25.16 15.7 60.2 43 3.3 38 0
09:41 1023 30.21 852 25.16 15.6 60 41 2.3 36.2 0
09:42 1023 30.21 852 25.16 15.5 59.9 44 3.2 37.8 0
09:43 1023 30.21 852 25.16 15.6 60 45 3.9 39 0
09:44 1022 30.18 852 25.16 15.6 60 47 4.5 40.1 0
09:45 1023 30.21 852 25.16 15.6 60.1 42 2.8 37.1 0
09:46 1023 30.21 852 25.16 15.7 60.2 41 2.6 36.7 0
09:47 1023 30.21 852 25.16 15.8 60.4 42 3 37.4 0
09:48 1023 30.21 852 25.16 15.9 60.5 45 4.1 39.3 0
09:49 1023 30.21 852 25.16 15.9 60.6 50 5.6 42.1 0
09:50 1023 30.21 852 25.16 15.9 60.6 49 5.2 41.3 0
09:51 1023 30.21 852 25.16 16 60.8 49 5.5 41.8 0
09:52 1022 30.18 852 25.16 16 60.9 43 3.7 38.6 0
09:53 1023 30.21 852 25.16 16 60.8 42 3.1 37.6 0
09:54 1022 30.18 852 25.16 16 60.9 45 4.1 39.4 0
09:55 1022 30.18 852 25.16 16.1 60.9 45 4.4 39.8 0
09:56 1022 30.18 852 25.16 16.2 61.1 42 3.5 38.2 0
09:57 1022 30.18 852 25.16 16.2 61.1 48 5.3 41.5 0
09:58 1022 30.18 852 25.16 16.2 61.2 47 5.1 41.1 0
09:59 1022 30.18 852 25.16 16.2 61.1 48 5.4 41.6 0
10:00 1022 30.18 852 25.16 16.2 61.2 43 3.6 38.5 0
10:01 1022 30.18 852 25.16 16.2 61.2 42 3.4 38.1 0
10:02 1022 30.18 852 25.16 16.2 61.2 42 3.3 37.9 0
10:03 1022 30.18 852 25.16 16.2 61.2 44 4.2 39.5 0
10:04 1022 30.18 852 25.16 16.2 61.1 41 3 37.3 0
10:05 1022 30.18 852 25.16 16.2 61.1 44 3.9 39 0
10:06 1022 30.18 852 25.16 16.3 61.3 50 5.9 42.7 0
10:07 1022 30.18 852 25.16 16.4 61.5 45 4.5 40.2 0
10:08 1022 30.18 852 25.16 16.6 61.8 42 3.8 38.8 0
10:09 1022 30.18 852 25.16 16.6 62 37 1.9 35.5 0
10:10 1022 30.18 852 25.16 16.7 62 41 3.4 38.2 0
10:11 1022 30.18 852 25.16 16.7 62 39 2.7 36.9 0
10:12 1022 30.18 852 25.16 16.7 62.1 45 4.7 40.5 0
10:13 1022 30.18 852 25.16 16.8 62.3 44 4.6 40.3 0
10:14 1022 30.18 852 25.16 17 62.6 36 1.8 35.3 0
10:15 1022 30.18 852 25.16 17 62.6 37 2.2 36 0
10:16 1022 30.18 852 25.16 17 62.6 37 2.2 36 0
10:17 1022 30.18 852 25.16 17.1 62.8 38 2.9 37.3 0
10:18 1022 30.18 852 25.16 17.3 63.1 35 1.8 35.3 0
10:19 1022 30.18 852 25.16 17.4 63.3 34 1.7 35 0
10:20 1022 30.18 852 25.16 17.4 63.4 35 2 35.6 0
10:21 1022 30.18 852 25.16 17.3 63.2 41 4 39.2 0
10:22 1022 30.18 852 25.16 17.2 63 43 4.5 40.1 0
10:23 1022 30.18 852 25.16 17.2 63 38 2.9 37.1 0
10:24 1022 30.18 852 25.16 17.2 63 43 4.6 40.3 0
10:25 1022 30.18 852 25.16 17.1 62.8 40 3.6 38.6 0
10:26 1022 30.18 852 25.16 17.2 62.9 40 3.6 38.6 0
10:27 1022 30.18 852 25.16 17.2 62.9 40 3.7 38.7 0
10:28 1022 30.18 852 25.16 17.2 63 40 3.7 38.7 0
10:29 1022 30.18 852 25.16 17.5 63.4 46 5.9 42.5 0
10:30 1022 30.18 852 25.16 17.5 63.5 33 1.2 34.1 0
10:31 1022 30.18 852 25.16 17.6 63.6 32 0.9 33.6 0
10:32 1022 30.18 852 25.16 17.8 64 38 3.4 38.2 0
10:33 1022 30.18 852 25.16 18 64.4 45 6.1 43 0
10:34 1022 30.18 852 25.16 18.3 64.9 32 1.3 34.4 0
10:35 1022 30.18 852 25.16 18.3 65 44 6.1 43 0
10:36 1022 30.18 852 25.16 18.3 65 34 2.2 35.9 0
10:37 1022 30.18 852 25.16 18.2 64.8 36 3.2 37.8 0
10:38 1022 30.18 852 25.16 18 64.5 41 4.8 40.6 0
10:39 1022 30.18 852 25.16 17.9 64.2 40 4.2 39.6 0
10:40 1022 30.18 852 25.16 17.8 64 32 1 33.7 0
10:41 1022 30.18 852 25.16 17.6 63.7 40 3.9 39 0
10:42 1022 30.18 852 25.16 17.6 63.6 40 3.9 39.1 0
10:43 1022 30.18 852 25.16 17.5 63.4 33 1.1 34 0
10:44 1022 30.18 851 25.13 17.5 63.5 36 2.4 36.4 0
10:45 1022 30.18 851 25.13 17.6 63.6 35 2.2 36 0
10:46 1022 30.18 851 25.13 17.8 64 45 5.9 42.6 0
10:47 1022 30.18 851 25.13 17.9 64.3 39 3.9 39 0
10:48 1022 30.18 851 25.13 18 64.4 32 1.4 34.5 0
10:49 1022 30.18 851 25.13 18 64.3 40 4.5 40 0
10:50 1022 30.18 851 25.13 17.9 64.2 36 2.6 36.7 0
10:51 1022 30.18 851 25.13 17.8 64.1 36 2.6 36.7 0
10:52 1022 30.18 851 25.13 17.8 64 35 2.2 36 0
10:53 1022 30.18 851 25.13 17.8 64 33 1.6 34.8 0
10:54 1022 30.18 851 25.13 17.8 64.1 37 3 37.5 0
10:55 1022 30.18 851 25.13 17.9 64.3 45 6 42.8 0
10:56 1022 30.18 851 25.13 18.1 64.5 43 5.3 41.6 0
10:57 1022 30.18 851 25.13 18.1 64.5 31 0.9 33.7 0
10:58 1022 30.18 851 25.13 18 64.5 33 1.6 34.9 0
10:59 1022 30.18 851 25.13 18 64.4 31 0.6 33 0
11:00 1022 30.18 851 25.13 17.9 64.1 31 0.8 33.4 0
11:01 1022 30.18 851 25.13 17.8 64 35 2.1 35.7 0
11:02 1022 30.18 851 25.13 17.8 64 33 1.5 34.7 0
11:03 1022 30.18 851 25.13 17.7 63.9 39 3.6 38.5 0
11:04 1022 30.18 851 25.13 17.8 64.1 33 1.3 34.4 0
11:05 1022 30.18 851 25.13 17.9 64.2 33 1.7 35 0
11:06 1022 30.18 851 25.13 17.8 64.1 35 2.1 35.8 0
11:07 1022 30.18 851 25.13 17.8 64 33 1.5 34.8 0
11:08 1022 30.18 851 25.13 17.8 64 38 3.4 38.2 0
11:09 1022 30.18 851 25.13 17.7 63.8 34 1.6 34.9 0
11:10 1022 30.18 851 25.13 17.8 64 37 3.1 37.6 0
11:11 1022 30.18 851 25.13 17.8 64 43 5.1 41.2 0
11:12 1022 30.18 851 25.13 17.8 64.1 33 1.3 34.4 0
11:13 1022 30.18 851 25.13 17.9 64.1 40 4.1 39.3 0
11:14 1022 30.18 851 25.13 17.9 64.2 44 5.6 42.2 0
11:15 1022 30.18 851 25.13 17.9 64.2 42 4.9 40.8 0
11:16 1022 30.18 851 25.13 17.9 64.3 33 1.5 34.6 0
11:17 1022 30.18 851 25.13 17.9 64.2 34 1.8 35.3 0
11:18 1022 30.18 851 25.13 17.9 64.2 32 1.1 34 0
11:19 1022 30.18 851 25.13 17.9 64.3 35 2.3 36.1 0
11:20 1022 30.18 851 25.13 18 64.4 32 1.2 34.2 0
11:21 1022 30.18 851 25.13 18 64.4 32 1.1 33.9 0
11:22 1022 30.18 851 25.13 18.1 64.6 35 2.6 36.6 0
11:23 1022 30.18 851 25.13 18.4 65 39 4.1 39.4 0
11:24 1022 30.18 851 25.13 18.4 65.2 37 3.7 38.6 0
11:25 1022 30.18 851 25.13 18.5 65.2 35 2.9 37.1 0
11:26 1022 30.18 851 25.13 18.4 65.2 41 5.2 41.4 0
11:27 1022 30.18 851 25.13 18.5 65.2 38 3.9 39 0
11:28 1022 30.18 851 25.13 18.5 65.2 33 1.8 35.3 0
11:29 1022 30.18 851 25.13 18.4 65.1 37 3.7 38.6 0
11:30 1022 30.18 851 25.13 18.5 65.4 34 2.3 36.2 0
11:31 1022 30.18 851 25.13 18.7 65.6 34 2.5 36.5 0
11:32 1022 30.18 851 25.13 18.9 66 32 2.2 36 0
11:33 1022 30.18 851 25.13 19 66.2 37 4.3 39.7 0
11:34 1022 30.18 851 25.13 19 66.3 32 1.9 35.5 0
11:35 1022 30.18 851 25.13 19 66.1 32 2 35.5 0
11:36 1022 30.18 851 25.13 19 66.1 31 1.4 34.6 0
11:37 1022 30.18 851 25.13 18.9 66 38 4.5 40.1 0
11:38 1022 30.18 851 25.13 18.9 66 35 3.2 37.8 0
11:39 1022 30.18 851 25.13 18.8 65.9 29 0.5 33 0
11:40 1022 30.18 851 25.13 18.8 65.9 37 3.9 38.9 0
11:41 1022 30.18 851 25.13 18.9 66 31 1.5 34.6 0
11:42 1022 30.18 851 25.13 18.9 66 32 1.8 35.3 0
11:43 1022 30.18 851 25.13 18.9 66 34 3 37.5 0
11:44 1022 30.18 851 25.13 18.9 66.1 30 1.1 33.9 0
11:45 1022 30.18 851 25.13 18.9 65.9 35 3.2 37.8 0
11:46 1022 30.18 851 25.13 18.8 65.8 33 2.1 35.8 0
11:47 1022 30.18 851 25.13 18.7 65.6 29 0.2 32.4 0
11:48 1022 30.18 851 25.13 18.6 65.4 33 2 35.6 0
11:49 1022 30.18 851 25.13 18.7 65.6 33 2.1 35.7 0
11:50 1022 30.18 851 25.13 18.7 65.7 31 1.6 34.8 0
11:51 1022 30.18 851 25.13 18.8 65.8 34 2.6 36.6 0
11:52 1022 30.18 851 25.13 18.8 65.8 30 0.8 33.4 0
11:53 1022 30.18 851 25.13 18.8 65.8 29 0.7 33.2 0
11:54 1022 30.18 851 25.13 18.9 66 33 2.3 36.2 0
11:55 1022 30.18 851 25.13 19 66.1 35 3.3 38 0
11:56 1022 30.18 851 25.13 18.9 66.1 32 1.9 35.5 0
11:57 1022 30.18 851 25.13 18.9 66 31 1.3 34.4 0
11:58 1022 30.18 851 25.13 18.9 66.1 34 2.7 36.8 0
11:59 1022 30.18 851 25.13 18.9 66.1 31 1.5 34.7 0
12:00 1022 30.18 851 25.13 19 66.1 30 1 33.8 0
12:01 1022 30.18 851 25.13 19 66.2 31 1.7 35 0
12:02 1022 30.18 851 25.13 19.1 66.4 38 4.6 40.3 0
12:03 1022 30.18 851 25.13 19.1 66.4 36 3.8 38.9 0
12:04 1022 30.18 851 25.13 19.2 66.6 37 4.4 40 0
12:05 1022 30.18 851 25.13 19.3 66.7 42 6.3 43.3 0
12:06 1022 30.18 851 25.13 19.3 66.8 46 7.7 45.8 0
12:07 1022 30.18 851 25.13 19.3 66.7 32 2.5 36.6 0
12:08 1022 30.18 851 25.13 19.2 66.5 33 2.6 36.6 0
12:09 1022 30.18 851 25.13 19.1 66.4 30 1.4 34.5 0
12:10 1022 30.18 851 25.13 19 66.2 33 2.6 36.6 0
12:11 1022 30.18 851 25.13 18.9 66 34 2.8 37 0
12:12 1022 30.18 851 25.13 19 66.2 42 6.1 43 0
12:13 1022 30.18 851 25.13 19.2 66.6 29 1 33.8 0
12:14 1022 30.18 851 25.13 19.4 67 30 1.4 34.5 0
12:15 1022 30.18 851 25.13 19.5 67.1 37 4.4 40 0
12:16 1022 30.18 851 25.13 19.5 67.1 34 3.5 38.2 0
12:17 1022 30.18 851 25.13 19.4 66.9 32 2.3 36.1 0
12:18 1022 30.18 851 25.13 19.5 67 37 4.4 40 0
12:19 1022 30.18 851 25.13 19.5 67.1 49 8.6 47.4 0
12:20 1022 30.18 851 25.13 19.7 67.5 45 7.7 45.9 0
12:21 1022 30.18 851 25.13 19.9 67.7 35 4.3 39.7 0
12:22 1022 30.18 851 25.13 20.1 68.1 37 4.9 40.9 0
12:23 1022 30.18 851 25.13 20.3 68.5 36 5 41 0
12:24 1022 30.18 851 25.13 20.4 68.8 35 4.7 40.5 0
12:25 1022 30.18 851 25.13 20.3 68.6 28 1.2 34.2 0
12:26 1022 30.18 851 25.13 20.1 68.1 30 2.3 36.2 0
12:27 1022 30.18 851 25.13 20 68 33 3.5 38.2 0
12:28 1022 30.18 851 25.13 19.9 67.8 37 4.9 40.9 0
12:29 1022 30.18 851 25.13 19.8 67.6 29 1.5 34.8 0
12:30 1022 30.18 851 25.13 19.7 67.4 29 1.2 34.1 0
12:31 1022 30.18 851 25.13 19.6 67.2 40 5.7 42.3 0
12:32 1022 30.18 851 25.13 19.7 67.4 36 4.5 40.1 0
12:33 1022 30.18 851 25.13 19.9 67.8 38 5.1 41.2 0
12:34 1022 30.18 851 25.13 20.1 68.2 33 3.3 38 0
12:35 1022 30.18 851 25.13 20.1 68.2 30 2.2 36 0
12:36 1022 30.18 851 25.13 20.1 68.1 33 3.3 38 0
12:37 1022 30.18 851 25.13 20 67.9 34 3.8 38.9 0
12:38 1021 30.15 851 25.13 19.9 67.7 29 1.4 34.6 0
12:39 1021 30.15 851 25.13 19.8 67.6 29 1.5 34.8 0
12:40 1021 30.15 851 25.13 19.8 67.6 31 2.2 35.9 0
12:41 1021 30.15 851 25.13 19.8 67.6 30 2 35.6 0
12:42 1021 30.15 851 25.13 19.8 67.6 36 4.3 39.8 0
12:43 1021 30.15 851 25.13 20.1 68.2 46 8.4 47.1 0
12:44 1021 30.15 851 25.13 20.4 68.7 31 2.7 36.8 0
12:45 1021 30.15 851 25.13 20.4 68.7 33 3.5 38.4 0
12:46 1021 30.15 851 25.13 20.4 68.7 39 6.1 42.9 0
12:47 1021 30.15 851 25.13 20.5 68.8 32 3.5 38.4 0
12:48 1021 30.15 851 25.13 20.5 68.8 31 2.9 37.1 0
12:49 1021 30.15 851 25.13 20.5 68.8 31 3 37.3 0
12:50 1021 30.15 851 25.13 20.6 69.1 42 7.3 45.1 0
12:51 1021 30.15 850 25.1 20.7 69.3 35 4.7 40.5 0
12:52 1021 30.15 850 25.1 20.6 69.1 33 3.9 39.1 0
12:53 1021 30.15 850 25.1 20.5 69 31 3 37.4 0
12:54 1021 30.15 850 25.1 20.5 68.8 49 9.6 49.3 0
12:55 1021 30.15 850 25.1 20.5 68.9 33 3.7 38.6 0
12:56 1021 30.15 850 25.1 20.4 68.8 32 3.2 37.8 0
12:57 1021 30.15 850 25.1 20.4 68.7 31 3 37.3 0
12:58 1021 30.15 850 25.1 20.4 68.7 39 6 42.9 0
12:59 1021 30.15 850 25.1 20.3 68.6 30 2.6 36.7 0
13:00 1021 30.15 850 25.1 20.4 68.7 31 2.7 36.8 0
13:01 1021 30.15 850 25.1 20.4 68.7 35 4.5 40.1 0
13:02 1021 30.15 850 25.1 20.4 68.8 39 6.3 43.3 0
13:03 1021 30.15 850 25.1 20.4 68.8 33 3.9 39 0
13:04 1021 30.15 850 25.1 20.4 68.8 31 2.8 37.1 0
13:05 1021 30.15 850 25.1 20.4 68.7 38 5.6 42.1 0
13:06 1021 30.15 850 25.1 20.4 68.8 45 8.2 46.7 0
13:07 1021 30.15 850 25.1 20.7 69.2 36 5.2 41.3 0
13:08 1021 30.15 850 25.1 20.9 69.6 43 7.9 46.2 0
13:09 1021 30.15 850 25.1 21.2 70.1 31 3.6 38.4 0
13:10 1021 30.15 850 25.1 21.2 70.1 42 8 46.4 0
13:11 1021 30.15 850 25.1 21.1 70 35 5.3 41.6 0
13:12 1021 30.15 850 25.1 21 69.8 33 4.2 39.6 0
13:13 1021 30.15 850 25.1 20.9 69.6 30 2.8 37 0
13:14 1021 30.15 850 25.1 20.8 69.4 30 3 37.4 0
13:15 1021 30.15 850 25.1 20.7 69.3 29 2.1 35.8 0
13:16 1021 30.15 850 25.1 20.7 69.2 33 3.9 39 0
13:17 1021 30.15 850 25.1 20.7 69.2 39 6.6 43.8 0
13:18 1021 30.15 850 25.1 20.7 69.3 36 5.2 41.4 0
13:19 1021 30.15 850 25.1 20.8 69.4 30 2.7 36.8 0
13:20 1021 30.15 850 25.1 20.8 69.4 31 3.4 38.1 0
13:21 1021 30.15 850 25.1 20.8 69.4 29 2.1 35.9 0
13:22 1021 30.15 850 25.1 20.9 69.7 28 2 35.5 0
13:23 1021 30.15 850 25.1 21 69.9 38 6.5 43.7 0
13:24 1021 30.15 850 25.1 21.1 70 29 2.8 37 0
13:25 1021 30.15 850 25.1 21.2 70.1 31 3.7 38.6 0
13:26 1021 30.15 850 25.1 21.3 70.4 34 5.1 41.2 0
13:27 1021 30.15 850 25.1 21.5 70.7 32 4.4 40 0
13:28 1021 30.15 850 25.1 21.5 70.7 30 3.6 38.5 0
13:29 1021 30.15 850 25.1 21.5 70.8 37 6.3 43.3 0
13:30 1021 30.15 850 25.1 21.5 70.8 39 7.2 45 0
13:31 1021 30.15 850 25.1 21.5 70.7 38 6.9 44.3 0
13:32 1021 30.15 850 25.1 21.4 70.4 33 4.4 39.9 0
13:33 1021 30.15 850 25.1 21.3 70.3 41 7.6 45.7 0
13:34 1021 30.15 850 25.1 21.2 70.2 30 3.2 37.8 0
13:35 1021 30.15 850 25.1 21.2 70.1 33 4.5 40 0
13:36 1021 30.15 850 25.1 21.1 70 35 5.4 41.8 0
13:37 1021 30.15 850 25.1 21.1 69.9 36 5.5 41.9 0
13:38 1021 30.15 850 25.1 21 69.8 35 5.1 41.2 0
13:39 1021 30.15 850 25.1 21.1 69.9 39 6.7 44.1 0
13:40 1021 30.15 850 25.1 21.1 70 33 4.4 39.9 0
13:41 1021 30.15 850 25.1 21.1 69.9 34 4.9 40.8 0
13:42 1021 30.15 850 25.1 21 69.8 32 4.1 39.3 0
13:43 1021 30.15 850 25.1 21 69.8 41 7.3 45.1 0
13:44 1021 30.15 850 25.1 21.1 69.9 32 4 39.2 0
13:45 1021 30.15 850 25.1 21.1 69.9 37 6.1 42.9 0
13:46 1021 30.15 850 25.1 21.1 70 33 4.3 39.8 0
13:47 1021 30.15 850 25.1 21.1 70 39 6.9 44.4 0
13:48 1020 30.12 850 25.1 21.2 70.1 40 7.3 45.1 0
13:49 1020 30.12 850 25.1 21.3 70.3 33 4.6 40.4 0
13:50 1020 30.12 850 25.1 21.3 70.4 36 5.8 42.4 0
13:51 1020 30.12 850 25.1 21.4 70.5 38 6.8 44.3 0
13:52 1020 30.12 850 25.1 21.4 70.5 37 6.1 42.9 0
13:53 1020 30.12 850 25.1 21.4 70.5 41 7.7 45.8 0
13:54 1020 30.12 850 25.1 21.5 70.7 38 6.8 44.2 0
13:55 1020 30.12 850 25.1 21.6 70.8 39 7 44.6 0
13:56 1020 30.12 850 25.1 21.6 70.9 38 7 44.6 0
13:57 1020 30.12 850 25.1 21.7 71 38 7 44.6 0
13:58 1020 30.12 850 25.1 21.7 71.1 33 5.1 41.2 0
13:59 1020 30.12 850 25.1 21.7 71.1 35 5.8 42.4 0
14:00 1020 30.12 850 25.1 21.7 71 32 4.5 40.1 0
14:01 1020 30.12 850 25.1 21.7 71 36 6.1 43 0
14:02 1020 30.12 850 25.1 21.8 71.2 33 5.2 41.3 0
14:03 1020 30.12 850 25.1 21.9 71.5 36 6.3 43.4 0
14:04 1020 30.12 850 25.1 22 71.5 28 2.9 37.1 0
14:05 1020 30.12 850 25.1 21.9 71.4 38 6.9 44.5 0
14:06 1020 30.12 850 25.1 21.8 71.3 36 6.2 43.1 0
14:07 1020 30.12 850 25.1 21.9 71.4 33 5.3 41.5 0
14:08 1020 30.12 850 25.1 22 71.5 35 5.9 42.5 0
14:09 1020 30.12 850 25.1 22.1 71.7 32 4.9 40.8 0
14:10 1020 30.12 850 25.1 22.1 71.8 29 3.6 38.4 0
14:11 1020 30.12 850 25.1 22 71.7 39 7.7 45.8 0
14:12 1020 30.12 850 25.1 22.1 71.8 34 5.5 41.9 0
14:13 1020 30.12 850 25.1 22.2 72 36 6.7 44 0
14:14 1020 30.12 850 25.1 22.2 72 29 3.7 38.6 0
14:15 1020 30.12 850 25.1 22.1 71.8 32 4.9 40.8 0
14:16 1020 30.12 849 25.07 22.1 71.7 35 5.9 42.6 0
14:17 1020 30.12 849 25.07 22.1 71.7 33 5.2 41.3 0
14:18 1020 30.12 849 25.07 22.1 71.9 32 4.9 40.9 0
14:19 1020 30.12 849 25.07 22.1 71.9 30 3.8 38.9 0
14:20 1020 30.12 849 25.07 22.2 72 38 7.2 45 0
14:21 1020 30.12 849 25.07 22.2 72 33 5.5 41.9 0
14:22 1020 30.12 849 25.07 22.3 72.1 29 3.4 38.1 0
14:23 1020 30.12 849 25.07 22.3 72.1 31 4.6 40.3 0
14:24 1020 30.12 849 25.07 22.2 72 35 6.3 43.3 0
14:25 1020 30.12 849 25.07 22.3 72.2 33 5.4 41.8 0
14:26 1020 30.12 849 25.07 22.3 72.2 30 4 39.3 0
14:27 1020 30.12 849 25.07 22.3 72.1 33 5.6 42.1 0
14:28 1020 30.12 849 25.07 22.4 72.4 26 2.2 36 0
14:29 1020 30.12 849 25.07 22.4 72.3 41 8.8 47.9 0
14:30 1020 30.12 849 25.07 22.5 72.6 35 6.5 43.7 0
14:31 1020 30.12 849 25.07 22.6 72.8 32 5.4 41.8 0
14:32 1020 30.12 849 25.07 22.6 72.7 31 4.7 40.4 0
14:33 1020 30.12 849 25.07 22.6 72.6 33 5.9 42.6 0
14:34 1020 30.12 849 25.07 22.5 72.6 32 5.2 41.3 0
14:35 1020 30.12 849 25.07 22.6 72.6 32 5.1 41.2 0
14:36 1020 30.12 849 25.07 22.6 72.8 35 6.6 43.9 0
14:37 1020 30.12 849 25.07 22.7 72.9 32 5.3 41.6 0
14:38 1020 30.12 849 25.07 22.7 72.9 29 4.1 39.3 0
14:39 1020 30.12 849 25.07 22.6 72.7 37 7.4 45.4 0
14:40 1020 30.12 849 25.07 22.6 72.7 38 7.8 46.1 0
14:41 1020 30.12 849 25.07 22.6 72.8 31 4.8 40.6 0
14:42 1020 30.12 849 25.07 22.7 72.9 28 3.7 38.6 0
14:43 1020 30.12 849 25.07 22.6 72.7 31 4.6 40.3 0
14:44 1020 30.12 849 25.07 22.6 72.7 30 4.1 39.4 0
14:45 1020 30.12 849 25.07 22.5 72.6 30 4.2 39.6 0
14:46 1020 30.12 849 25.07 22.6 72.6 31 5 40.9 0
14:47 1020 30.12 849 25.07 22.6 72.6 27 2.6 36.6 0
14:48 1020 30.12 849 25.07 22.5 72.5 32 5.1 41.2 0
14:49 1020 30.12 849 25.07 22.6 72.6 29 3.6 38.5 0
14:50 1020 30.12 849 25.07 22.6 72.6 32 5.4 41.8 0
14:51 1020 30.12 849 25.07 22.6 72.7 30 4.6 40.3 0
14:52 1020 30.12 849 25.07 22.7 72.8 31 4.7 40.5 0
14:53 1020 30.12 849 25.07 22.6 72.7 37 7.3 45.2 0
14:54 1020 30.12 849 25.07 22.7 72.8 35 6.7 44 0
14:55 1020 30.12 849 25.07 22.7 72.8 32 5.4 41.7 0
14:56 1020 30.12 849 25.07 22.7 72.8 39 8.1 46.5 0
14:57 1020 30.12 849 25.07 22.8 73 36 7.2 45 0
14:58 1020 30.12 849 25.07 22.8 73.1 32 5.3 41.6 0
14:59 1020 30.12 849 25.07 22.8 73.1 38 8 46.3 0
15:00 1020 30.12 849 25.07 22.8 73.1 39 8.3 46.9 0
15:01 1020 30.12 849 25.07 22.9 73.3 32 5.4 41.7 0
15:02 1020 30.12 849 25.07 23 73.4 42 9.5 49 0
15:03 1020 30.12 849 25.07 23.1 73.6 30 4.6 40.3 0
15:04 1020 30.12 849 25.07 23.1 73.5 29 4.3 39.8 0
15:05 1020 30.12 849 25.07 23 73.3 32 5.6 42.1 0
15:06 1020 30.12 849 25.07 22.9 73.2 32 5.4 41.7 0
15:07 1020 30.12 849 25.07 22.9 73.3 34 6.3 43.3 0
15:08 1020 30.12 849 25.07 23 73.4 32 5.5 41.8 0
15:09 1020 30.12 849 25.07 22.9 73.3 27 3.3 37.9 0
15:10 1020 30.12 849 25.07 22.9 73.3 33 6 42.9 0
15:11 1020 30.12 849 25.07 23 73.3 34 6.5 43.6 0
15:12 1020 30.12 849 25.07 23 73.4 37 7.7 45.9 0
15:13 1020 30.12 849 25.07 23 73.4 29 4 39.3 0
15:14 1020 30.12 849 25.07 23 73.4 30 4.8 40.7 0
15:15 1020 30.12 849 25.07 23.1 73.6 33 6.1 43 0
15:16 1020 30.12 849 25.07 23.2 73.7 33 6.4 43.6 0
15:17 1020 30.12 849 25.07 23.2 73.8 31 5.4 41.7 0
15:18 1020 30.12 849 25.07 23.3 73.9 33 6.2 43.1 0
15:19 1020 30.12 849 25.07 23.3 74 34 6.9 44.4 0
15:20 1020 30.12 849 25.07 23.3 74 28 4.2 39.6 0
15:21 1020 30.12 849 25.07 23.3 73.9 29 4.6 40.3 0
15:22 1020 30.12 849 25.07 23.2 73.7 29 4.4 39.9 0
15:23 1020 30.12 849 25.07 23.2 73.8 38 8.2 46.8 0
15:24 1020 30.12 849 25.07 23.3 74 29 4.7 40.5 0
15:25 1020 30.12 849 25.07 23.4 74 31 5.7 42.3 0
15:26 1020 30.12 849 25.07 23.4 74.2 27 3.8 38.8 0
15:27 1020 30.12 849 25.07 23.5 74.2 30 5.2 41.4 0
15:28 1020 30.12 849 25.07 23.5 74.3 30 5.1 41.1 0
15:29 1020 30.12 849 25.07 23.5 74.2 32 6.1 42.9 0
15:30 1020 30.12 849 25.07 23.5 74.2 29 4.6 40.3 0
15:31 1020 30.12 849 25.07 23.5 74.3 29 4.6 40.3 0
15:32 1020 30.12 849 25.07 23.5 74.2 28 4.3 39.8 0
15:33 1020 30.12 849 25.07 23.5 74.3 34 6.9 44.4 0
15:34 1020 30.12 849 25.07 23.6 74.5 27 4 39.1 0
15:35 1020 30.12 849 25.07 23.7 74.7 28 4.5 40.1 0
15:36 1020 30.12 849 25.07 23.7 74.7 31 6 42.8 0
15:37 1020 30.12 849 25.07 23.7 74.7 33 6.8 44.2 0
15:38 1020 30.12 849 25.07 23.8 74.8 31 5.8 42.4 0
15:39 1020 30.12 849 25.07 23.8 74.8 30 5.2 41.3 0
15:40 1020 30.12 849 25.07 23.7 74.7 30 5.4 41.7 0
15:41 1020 30.12 849 25.07 23.8 74.8 27 3.7 38.6 0
15:42 1020 30.12 849 25.07 23.7 74.6 31 5.7 42.2 0
15:43 1020 30.12 849 25.07 23.7 74.6 33 6.5 43.8 0
15:44 1020 30.12 849 25.07 23.7 74.7 33 6.5 43.8 0
15:45 1020 30.12 849 25.07 23.8 74.8 31 5.9 42.6 0
15:46 1020 30.12 849 25.07 23.9 74.9 26 3.2 37.7 0
15:47 1020 30.12 849 25.07 23.8 74.8 30 5.5 41.9 0
15:48 1020 30.12 849 25.07 23.8 74.8 37 8.3 46.9 0
15:49 1020 30.12 849 25.07 23.9 74.9 32 6.3 43.3 0
15:50 1020 30.12 849 25.07 23.8 74.9 29 5 41 0
15:51 1020 30.12 849 25.07 23.8 74.9 30 5.4 41.7 0
15:52 1020 30.12 849 25.07 23.7 74.7 28 4.1 39.5 0
15:53 1020 30.12 849 25.07 23.7 74.6 34 7.2 44.9 0
15:54 1020 30.12 849 25.07 23.8 74.8 33 6.7 44.1 0
15:55 1019 30.09 849 25.07 23.9 74.9 26 3.4 38.1 0
15:56 1019 30.09 849 25.07 23.9 74.9 26 3.6 38.5 0
15:57 1019 30.09 849 25.07 23.8 74.8 26 3.4 38 0
15:58 1019 30.09 849 25.07 23.7 74.6 29 4.8 40.6 0
15:59 1019 30.09 849 25.07 23.6 74.5 32 6.1 42.9 0
16:00 1019 30.09 849 25.07 23.7 74.6 33 6.7 44 0
16:01 1019 30.09 849 25.07 23.8 74.9 27 4.1 39.4 0
16:02 1019 30.09 849 25.07 24 75.2 30 5.6 42 0
16:03 1019 30.09 849 25.07 24 75.3 26 3.8 38.9 0
16:04 1019 30.09 849 25.07 24.1 75.3 35 7.8 46.1 0
16:05 1019 30.09 849 25.07 24.2 75.5 29 5.1 41.2 0
16:06 1019 30.09 849 25.07 24.3 75.7 34 7.4 45.4 0
16:07 1019 30.09 849 25.07 24.2 75.6 32 6.6 43.8 0
16:08 1019 30.09 849 25.07 24.1 75.3 33 7.1 44.8 0
16:09 1019 30.09 849 25.07 24 75.2 25 2.9 37.2 0
16:10 1019 30.09 849 25.07 24 75.1 32 6.7 44.1 0
16:11 1019 30.09 849 25.07 24 75.2 24 2.2 36 0
16:12 1019 30.09 849 25.07 24 75.1 28 4.7 40.4 0
16:13 1019 30.09 849 25.07 24 75.3 27 4 39.1 0
16:14 1019 30.09 848 25.04 24.2 75.5 25 2.9 37.3 0
16:15 1019 30.09 848 25.04 24.3 75.7 31 6.1 43 0
16:16 1019 30.09 848 25.04 24.2 75.6 26 3.8 38.8 0
16:17 1019 30.09 848 25.04 24.2 75.5 28 4.6 40.4 0
16:18 1019 30.09 848 25.04 24.2 75.5 29 5.2 41.4 0
16:19 1019 30.09 848 25.04 24.2 75.6 30 5.7 42.3 0
16:20 1019 30.09 848 25.04 24.2 75.6 30 6 42.8 0
16:21 1019 30.09 848 25.04 24.3 75.7 31 6.5 43.7 0
16:22 1019 30.09 848 25.04 24.3 75.7 25 3.3 37.9 0
16:23 1019 30.09 848 25.04 24.2 75.5 28 4.7 40.5 0
16:24 1019 30.09 848 25.04 24.1 75.4 31 6.2 43.1 0
16:25 1019 30.09 848 25.04 24.1 75.3 30 5.4 41.7 0
16:26 1019 30.09 848 25.04 24 75.2 30 5.6 42.1 0
16:27 1019 30.09 848 25.04 24 75.1 32 6.3 43.4 0
16:28 1019 30.09 848 25.04 24 75.1 25 3.1 37.5 0
16:29 1019 30.09 848 25.04 24 75.2 30 5.6 42 0
16:30 1019 30.09 848 25.04 24.1 75.3 29 5.3 41.5 0
16:31 1019 30.09 848 25.04 24.2 75.6 24 2.6 36.7 0
16:32 1019 30.09 848 25.04 24.3 75.7 30 5.7 42.2 0
16:33 1019 30.09 848 25.04 24.3 75.8 29 5.2 41.3 0
16:34 1019 30.09 848 25.04 24.3 75.8 29 5.6 42 0
16:35 1019 30.09 848 25.04 24.3 75.7 26 4 39.2 0
16:36 1019 30.09 848 25.04 24.2 75.6 28 4.6 40.3 0
16:37 1019 30.09 848 25.04 24.2 75.5 33 7 44.5 0
16:38 1019 30.09 848 25.04 24.2 75.6 30 6 42.7 0
16:39 1019 30.09 848 25.04 24.3 75.7 30 5.9 42.5 0
16:40 1019 30.09 848 25.04 24.3 75.8 29 5.4 41.8 0
16:41 1019 30.09 848 25.04 24.4 75.8 26 3.8 38.9 0
16:42 1019 30.09 848 25.04 24.4 75.9 30 5.7 42.3 0
16:43 1019 30.09 848 25.04 24.4 75.9 28 5.2 41.3 0
16:44 1019 30.09 848 25.04 24.5 76.1 30 5.9 42.6 0
16:45 1019 30.09 848 25.04 24.6 76.3 31 6.8 44.2 0
16:46 1019 30.09 848 25.04 24.7 76.4 30 6.2 43.2 0
16:47 1019 30.09 848 25.04 24.7 76.4 27 4.4 39.9 0
16:48 1019 30.09 848 25.04 24.6 76.2 30 6 42.9 0
16:49 1019 30.09 848 25.04 24.4 76 29 5.2 41.4 0
16:50 1019 30.09 848 25.04 24.4 75.8 30 5.7 42.2 0
16:51 1019 30.09 848 25.04 24.3 75.8 29 5.5 41.9 0
16:52 1019 30.09 848 25.04 24.3 75.7 26 3.8 38.8 0
16:53 1019 30.09 848 25.04 24.3 75.7 28 4.7 40.5 0
16:54 1019 30.09 848 25.04 24.2 75.6 27 4.3 39.7 0
16:55 1019 30.09 848 25.04 24.3 75.7 31 6.5 43.6 0
16:56 1019 30.09 848 25.04 24.3 75.7 29 5.5 41.9 0
16:57 1019 30.09 848 25.04 24.4 75.8 28 4.8 40.6 0
16:58 1019 30.09 848 25.04 24.4 75.9 24 2.5 36.5 0
16:59 1019 30.09 848 25.04 24.5 76 27 4.3 39.7 0
17:00 1019 30.09 848 25.04 24.5 76 24 2.8 37.1 0
17:01 1019 30.09 848 25.04 24.5 76.2 32 6.9 44.4 0
17:02 1019 30.09 848 25.04 24.7 76.4 29 5.6 42 0
17:03 1019 30.09 848 25.04 24.7 76.4 30 6.4 43.5 0
17:04 1019 30.09 848 25.04 24.6 76.4 24 3.1 37.5 0
17:05 1019 30.09 848 25.04 24.6 76.3 24 3.1 37.6 0
17:06 1019 30.09 848 25.04 24.6 76.2 30 6 42.8 0
17:07 1019 30.09 848 25.04 24.6 76.3 29 5.8 42.4 0
17:08 1019 30.09 848 25.04 24.6 76.2 26 4.1 39.3 0
17:09 1019 30.09 848 25.04 24.5 76.1 26 3.9 39.1 0
17:10 1019 30.09 848 25.04 24.6 76.2 33 7.4 45.4 0
17:11 1019 30.09 848 25.04 24.7 76.4 29 5.7 42.3 0
17:12 1019 30.09 848 25.04 24.8 76.6 26 4.4 39.9 0
17:13 1019 30.09 848 25.04 24.9 76.8 25 3.6 38.6 0
17:14 1019 30.09 848 25.04 25 76.9 28 5.3 41.5 0
17:15 1019 30.09 848 25.04 25.1 77.1 28 5.5 41.9 0
17:16 1019 30.09 848 25.04 25.1 77.1 35 8.7 47.7 0
17:17 1019 30.09 848 25.04 25 77 29 5.9 42.6 0
17:18 1019 30.09 848 25.04 24.9 76.8 25 3.7 38.7 0
17:19 1019 30.09 848 25.04 24.9 76.8 30 6.4 43.5 0
17:20 1019 30.09 848 25.04 24.9 76.8 36 8.9 47.9 0
17:21 1019 30.09 848 25.04 24.8 76.7 29 5.6 42 0
17:22 1019 30.09 848 25.04 24.8 76.6 28 5.4 41.7 0
17:23 1019 30.09 848 25.04 24.8 76.6 35 8.6 47.4 0
17:24 1019 30.09 848 25.04 24.7 76.5 28 5.3 41.6 0
17:25 1019 30.09 848 25.04 24.6 76.4 27 4.7 40.5 0
17:26 1019 30.09 848 25.04 24.6 76.3 26 4.3 39.7 0
17:27 1019 30.09 848 25.04 24.6 76.3 26 4.2 39.6 0
17:28 1019 30.09 848 25.04 24.6 76.3 21 1.4 34.5 0
17:29 1019 30.09 848 25.04 24.6 76.4 25 3.4 38.2 0
17:30 1019 30.09 848 25.04 24.7 76.4 27 4.6 40.3 0
17:31 1019 30.09 848 25.04 24.7 76.5 36 8.7 47.6 0
17:32 1019 30.09 848 25.04 24.8 76.6 25 3.9 39 0
17:33 1019 30.09 848 25.04 24.9 76.8 25 3.8 38.8 0
17:34 1019 30.09 848 25.04 25 77.1 25 3.9 39 0
17:35 1019 30.09 848 25.04 25.1 77.1 25 3.8 38.8 0
17:36 1019 30.09 848 25.04 25 77 29 6.2 43.1 0
17:37 1019 30.09 848 25.04 25.1 77.1 22 1.9 35.4 0
17:38 1019 30.09 848 25.04 25.1 77.2 26 4.5 40 0
17:39 1019 30.09 848 25.04 25 77 26 4.4 39.9 0
17:40 1019 30.09 848 25.04 25 76.9 25 3.7 38.7 0
17:41 1019 30.09 848 25.04 24.9 76.9 27 4.7 40.4 0
17:42 1019 30.09 848 25.04 24.9 76.8 26 4.1 39.3 0
17:43 1019 30.09 848 25.04 24.8 76.7 22 2.1 35.7 0
17:44 1019 30.09 848 25.04 24.8 76.6 28 5.5 41.8 0
17:45 1019 30.09 848 25.04 24.8 76.6 31 6.9 44.4 0
17:46 1019 30.09 848 25.04 24.8 76.6 29 6 42.9 0
17:47 1019 30.09 848 25.04 24.8 76.6 22 1.7 35.1 0
17:48 1019 30.09 848 25.04 24.8 76.6 26 4.1 39.4 0
17:49 1019 30.09 848 25.04 24.9 76.8 20 0.6 33.1 0
17:50 1019 30.09 848 25.04 25 77.1 23 2.5 36.5 0
17:51 1019 30.09 848 25.04 25.2 77.4 27 5.2 41.3 0
17:52 1019 30.09 848 25.04 25.4 77.7 24 3.6 38.6 0
17:53 1019 30.09 848 25.04 25.4 77.8 28 6 42.9 0
17:54 1019 30.09 848 25.04 25.4 77.8 28 5.6 42.1 0
17:55 1019 30.09 848 25.04 25.4 77.7 21 1.7 35 0
17:56 1019 30.09 848 25.04 25.4 77.7 24 3.7 38.7 0
17:57 1019 30.09 848 25.04 25.4 77.7 22 2.2 36 0
17:58 1019 30.09 848 25.04 25.3 77.6 31 7.1 44.8 0
17:59 1019 30.09 848 25.04 25.3 77.5 26 4.8 40.7 0
18:00 1019 30.09 848 25.04 25.2 77.3 23 3.1 37.5 0
18:01 1019 30.09 848 25.04 25.2 77.3 24 3.3 38 0
18:02 1019 30.09 848 25.04 25.4 77.6 20 1.2 34.1 0
18:03 1019 30.09 848 25.04 25.5 78 19 0.8 33.4 0
18:04 1019 30.09 848 25.04 25.7 78.3 19 0.4 32.8 0
18:05 1019 30.09 848 25.04 25.9 78.6 26 5.2 41.3 0
18:06 1019 30.09 848 25.04 26 78.8 26 5.3 41.5 0
18:07 1019 30.09 848 25.04 25.9 78.7 24 3.8 38.9 0
18:08 1019 30.09 848 25.04 25.8 78.5 27 5.6 42.1 0
18:09 1019 30.09 848 25.04 25.8 78.4 24 4 39.2 0
18:10 1019 30.09 848 25.04 25.8 78.5 29 6.6 43.9 0
18:11 1019 30.09 848 25.04 25.8 78.4 22 2.5 36.5 0
18:12 1019 30.09 848 25.04 25.8 78.4 20 1.4 34.5 0
18:13 1019 30.09 848 25.04 25.8 78.4 24 4.1 39.4 0
18:14 1019 30.09 848 25.04 25.7 78.2 22 2.4 36.3 0
18:15 1019 30.09 848 25.04 25.6 78 27 5.4 41.7 0
18:16 1019 30.09 848 25.04 25.4 77.8 23 2.9 37.2 0
18:17 1019 30.09 848 25.04 25.4 77.7 20 1.2 34.2 0
18:18 1019 30.09 848 25.04 25.3 77.6 28 5.9 42.7 0
18:19 1019 30.09 848 25.04 25.3 77.6 25 3.9 39.1 0
18:20 1019 30.09 848 25.04 25.3 77.6 30 6.9 44.5 0
18:21 1019 30.09 848 25.04 25.3 77.6 29 6.1 43 0
18:22 1019 30.09 848 25.04 25.3 77.5 37 9.8 49.6 0
18:23 1019 30.09 848 25.04 25.3 77.6 35 8.8 47.8 0
18:24 1019 30.09 848 25.04 25.4 77.7 21 1.6 34.8 0
18:25 1019 30.09 848 25.04 25.5 78 24 3.7 38.7 0
18:26 1019 30.09 848 25.04 25.7 78.3 20 1.3 34.3 0
18:27 1019 30.09 848 25.04 25.7 78.3 20 1.3 34.4 0
18:28 1019 30.09 848 25.04 25.7 78.2 21 1.8 35.3 0
18:29 1019 30.09 848 25.04 25.6 78.1 21 1.9 35.3 0
18:30 1019 30.09 848 25.04 25.6 78 28 6.1 43 0
18:31 1019 30.09 848 25.04 25.5 77.9 34 8.8 47.8 0
18:32 1019 30.09 848 25.04 25.4 77.6 22 2.3 36.1 0
18:33 1019 30.09 848 25.04 25.3 77.6 22 2.6 36.7 0
18:34 1019 30.09 848 25.04 25.3 77.5 33 8.2 46.8 0
18:35 1019 30.09 848 25.04 25.2 77.3 22 2.2 35.9 0
18:36 1019 30.09 848 25.04 25.1 77.2 26 4.4 39.9 0
18:37 1019 30.09 848 25.04 25 77 23 2.6 36.7 0
18:38 1019 30.09 848 25.04 24.9 76.8 28 5.2 41.3 0
18:39 1019 30.09 848 25.04 24.8 76.6 21 1.2 34.2 0
18:40 1019 30.09 848 25.04 24.7 76.5 21 0.9 33.7 0
18:41 1019 30.09 848 25.04 24.8 76.6 20 0.4 32.7 0
18:42 1019 30.09 848 25.04 24.9 76.9 21 1.3 34.3 0
18:43 1019 30.09 848 25.04 25.1 77.1 20 0.9 33.6 0
18:44 1019 30.09 848 25.04 25.1 77.1 19 0.3 32.5 0
18:45 1019 30.09 848 25.04 25.2 77.3 24 3.2 37.7 0
18:46 1019 30.09 848 25.04 25.2 77.4 28 5.5 41.9 0
18:47 1019 30.09 848 25.04 25.1 77.2 27 5.3 41.5 0
18:48 1019 30.09 848 25.04 25.1 77.2 30 6.7 44.1 0
18:49 1019 30.09 848 25.04 25.1 77.2 39 10.6 51 0
18:50 1019 30.09 848 25.04 25.2 77.3 33 8.1 46.5 0
18:51 1019 30.09 848 25.04 25.2 77.4 30 6.6 43.8 0
18:52 1019 30.09 848 25.04 25.2 77.4 26 4.6 40.3 0
18:53 1019 30.09 848 25.04 25.3 77.5 37 9.9 49.8 0
18:54 1019 30.09 848 25.04 25.2 77.4 25 3.8 38.9 0
18:55 1019 30.09 848 25.04 25.2 77.3 24 3.2 37.8 0
18:56 1019 30.09 848 25.04 25.2 77.4 31 7.3 45.1 0
18:57 1019 30.09 848 25.04 25.2 77.4 36 9.3 48.8 0
18:58 1019 30.09 848 25.04 25.2 77.4 34 8.5 47.3 0
18:59 1019 30.09 848 25.04 25.2 77.3 38 10.1 50.2 0
19:00 1019 30.09 848 25.04 25.2 77.3 39 10.4 50.6 0
19:01 1019 30.09 848 25.04 25 77 38 10 50.1 0
19:02 1019 30.09 848 25.04 24.8 76.6 36 9 48.3 0
19:03 1019 30.09 848 25.04 24.7 76.4 34 8.2 46.7 0
19:04 1019 30.09 848 25.04 24.6 76.3 31 6.5 43.7 0
19:05 1019 30.09 848 25.04 24.5 76.1 37 9 48.2 0
19:06 1019 30.09 848 25.04 24.5 76.1 40 10.1 50.2 0
19:07 1019 30.09 848 25.04 24.4 76 36 8.4 47.1 0
19:08 1019 30.09 848 25.04 24.4 76 33 7.2 45 0
19:09 1019 30.09 848 25.04 24.5 76.1 41 10.8 51.4 0
19:10 1019 30.09 848 25.04 24.5 76.2 34 7.8 46.1 0
19:11 1019 30.09 848 25.04 24.6 76.3 36 8.6 47.5 0
19:12 1019 30.09 848 25.04 24.7 76.4 28 5 41 0
19:13 1019 30.09 848 25.04 24.7 76.5 22 1.9 35.4 0
19:14 1019 30.09 848 25.04 24.9 76.8 31 6.9 44.5 0
19:15 1019 30.09 848 25.04 24.9 76.9 31 7.1 44.7 0
19:16 1019 30.09 848 25.04 25 77 26 4.5 40.1 0
19:17 1019 30.09 848 25.04 25 76.9 31 7.1 44.8 0
19:18 1019 30.09 848 25.04 25 76.9 41 11 51.8 0
19:19 1019 30.09 848 25.04 24.9 76.7 26 4.2 39.6 0
19:20 1019 30.09 848 25.04 24.8 76.6 27 4.5 40.1 0
19:21 1019 30.09 848 25.04 24.8 76.6 30 6.1 43 0
19:22 1019 30.09 848 25.04 24.7 76.4 39 9.8 49.7 0
19:23 1019 30.09 848 25.04 24.5 76.1 30 6 42.8 0
19:24 1019 30.09 848 25.04 24.4 75.9 28 4.8 40.6 0
19:25 1019 30.09 848 25.04 24.3 75.8 27 4.4 39.9 0
19:26 1019 30.09 848 25.04 24.3 75.8 27 4.2 39.6 0
19:27 1019 30.09 848 25.04 24.3 75.8 30 5.7 42.2 0
19:28 1019 30.09 848 25.04 24.3 75.7 31 6.2 43.2 0
19:29 1019 30.09 848 25.04 24.3 75.8 40 10.1 50.2 0
19:30 1019 30.09 848 25.04 24.2 75.6 42 10.7 51.3 0
19:31 1019 30.09 848 25.04 23.9 75 40 9.8 49.6 0
19:32 1019 30.09 848 25.04 23.6 74.5 42 10.3 50.6 0
19:33 1019 30.09 848 25.04 23.4 74 38 8.5 47.2 0
19:34 1019 30.09 848 25.04 23.1 73.5 42 9.7 49.5 0
19:35 1019 30.09 848 25.04 22.8 73.1 41 9.1 48.4 0
19:36 1019 30.09 848 25.04 22.7 72.9 40 8.5 47.3 0
19:37 1019 30.09 848 25.04 22.6 72.8 40 8.5 47.3 0
19:38 1019 30.09 848 25.04 22.6 72.6 40 8.4 47.2 0
19:39 1019 30.09 848 25.04 22.5 72.5 37 7.1 44.8 0
19:40 1019 30.09 848 25.04 22.4 72.3 42 8.9 48.1 0
19:41 1019 30.09 848 25.04 22.3 72.1 40 8.3 47 0
19:42 1019 30.09 848 25.04 22.2 71.9 37 6.9 44.5 0
19:43 1019 30.09 848 25.04 22.1 71.8 38 7.3 45.1 0
19:44 1019 30.09 848 25.04 22.1 71.8 36 6.5 43.7 0
19:45 1019 30.09 848 25.04 22.2 71.9 37 7.1 44.8 0
19:46 1019 30.09 848 25.04 22.2 72 33 5.2 41.3 0
19:47 1019 30.09 848 25.04 22.2 72 32 5.1 41.2 0
19:48 1019 30.09 848 25.04 22.3 72.1 34 5.8 42.5 0
19:49 1019 30.09 848 25.04 22.3 72.1 38 7.4 45.3 0
19:50 1019 30.09 848 25.04 22.2 71.9 42 8.8 47.8 0
19:51 1019 30.09 848 25.04 21.9 71.4 42 8.5 47.2 0
19:52 1019 30.09 848 25.04 21.6 70.9 46 9.6 49.3 0
19:53 1019 30.09 848 25.04 21.2 70.2 47 9.6 49.3 0
19:54 1019 30.09 848 25.04 21 69.9 48 9.8 49.7 0
19:55 1019 30.09 848 25.04 20.8 69.5 50 10.2 50.3 0
19:56 1019 30.09 848 25.04 20.6 69.1 53 10.7 51.3 0
19:57 1019 30.09 848 25.04 20.1 68.1 55 10.8 51.4 0
19:58 1019 30.09 848 25.04 19.4 66.9 53 9.6 49.4 0
19:59 1019 30.09 848 25.04 19 66.2 52 8.9 48.1 0
20:00 1019 30.09 848 25.04 18.8 65.8 56 10 50 0
20:01 1019 30.09 848 25.04 18.3 64.9 60 10.4 50.7 0
20:02 1019 30.09 848 25.04 17.9 64.1 56 9 48.2 0
20:03 1019 30.09 848 25.04 17.8 64 58 9.4 48.9 0
20:04 1019 30.09 848 25.04 17.6 63.7 56 8.9 48 0
20:05 1019 30.09 848 25.04 17.8 64.1 56 8.9 48.1 0
20:06 1019 30.09 848 25.04 17.7 63.9 56 8.8 47.9 0
20:07 1019 30.09 848 25.04 17.5 63.6 60 9.7 49.4 0
20:08 1019 30.09 848 25.04 17.2 63 62 9.9 49.7 0
20:09 1019 30.09 848 25.04 17 62.6 62 9.8 49.6 0
20:10 1019 30.09 848 25.04 16.8 62.2 65 10.2 50.3 0
20:11 1019 30.09 848 25.04 16.5 61.7 65 9.9 49.8 0
20:12 1019 30.09 848 25.04 16.4 61.4 59 8.4 47.2 0
20:13 1019 30.09 848 25.04 16.6 61.8 60 9 48.1 0
20:14 1019 30.09 848 25.04 16.5 61.7 61 9.1 48.4 0
20:15 1019 30.09 848 25.04 16.4 61.5 60 8.8 47.9 0
20:16 1019 30.09 848 25.04 16.4 61.4 58 8.2 46.8 0
20:17 1019 30.09 848 25.04 16.4 61.6 59 8.5 47.3 0
20:18 1019 30.09 848 25.04 16.3 61.3 60 8.7 47.6 0
20:19 1019 30.09 849 25.07 16.1 61 61 8.7 47.6 0
20:20 1019 30.09 848 25.04 15.9 60.7 61 8.6 47.5 0
20:21 1019 30.09 848 25.04 15.7 60.3 62 8.6 47.4 0
20:22 1019 30.09 849 25.07 15.6 60 62 8.5 47.3 0
20:23 1019 30.09 849 25.07 15.4 59.7 63 8.5 47.2 0
20:24 1019 30.09 849 25.07 15.3 59.5 64 8.5 47.2 0
20:25 1019 30.09 849 25.07 15.1 59.2 65 8.7 47.6 0
20:26 1019 30.09 849 25.07 14.9 58.9 66 8.8 47.8 0
20:27 1019 30.09 849 25.07 14.7 58.5 67 8.6 47.5 0
20:28 1019 30.09 849 25.07 14.6 58.2 68 8.7 47.7 0
20:29 1019 30.09 849 25.07 14.4 57.8 69 8.7 47.7 0
20:30 1019 30.09 849 25.07 14.1 57.4 69 8.5 47.3 0
20:31 1019 30.09 849 25.07 13.9 57 70 8.6 47.5 0
20:32 1019 30.09 849 25.07 13.7 56.6 71 8.6 47.4 0
20:33 1019 30.09 849 25.07 13.6 56.5 72 8.7 47.6 0
20:34 1019 30.09 849 25.07 13.4 56.2 73 8.7 47.7 0
20:35 1019 30.09 849 25.07 13.3 56 74 8.9 48 0
20:36 1019 30.09 849 25.07 13.1 55.6 76 9 48.1 0
20:37 1019 30.09 849 25.07 13 55.4 76 8.9 48 0
20:38 1020 30.12 849 25.07 12.9 55.2 76 8.7 47.7 0
20:39 1020 30.12 849 25.07 12.8 55.1 75 8.6 47.5 0
20:40 1020 30.12 849 25.07 12.8 55 76 8.7 47.6 0
20:41 1020 30.12 849 25.07 12.7 54.8 78 8.9 48 0
20:42 1020 30.12 849 25.07 12.6 54.6 78 8.9 48.1 0
20:43 1020 30.12 849 25.07 12.6 54.6 78 8.9 48 0
20:44 1020 30.12 849 25.07 12.5 54.6 76 8.5 47.3 0
20:45 1020 30.12 849 25.07 12.6 54.6 77 8.6 47.5 0
20:46 1020 30.12 849 25.07 12.5 54.5 78 8.7 47.7 0
20:47 1020 30.12 849 25.07 12.5 54.5 77 8.6 47.5 0
20:48 1020 30.12 849 25.07 12.6 54.7 76 8.6 47.4 0
20:49 1020 30.12 849 25.07 12.6 54.6 76 8.5 47.4 0
20:50 1020 30.12 849 25.07 12.5 54.4 74 8.1 46.5 0
20:51 1020 30.12 849 25.07 12.5 54.6 73 7.9 46.2 0
20:52 1020 30.12 849 25.07 12.7 54.8 73 8 46.5 0
20:53 1020 30.12 849 25.07 12.6 54.7 74 8.2 46.8 0
20:54 1020 30.12 849 25.07 12.5 54.5 75 8.3 46.9 0
20:55 1020 30.12 849 25.07 12.3 54.2 75 8.1 46.6 0
20:56 1020 30.12 849 25.07 12.4 54.4 74 7.9 46.2 0
20:57 1020 30.12 849 25.07 12.5 54.6 73 7.9 46.3 0
20:58 1020 30.12 849 25.07 12.5 54.6 72 7.6 45.7 0
20:59 1020 30.12 849 25.07 12.7 54.9 72 7.8 46.1 0
21:00 1020 30.12 849 25.07 12.7 54.8 72 7.8 46 0
21:01 1020 30.12 849 25.07 12.7 54.8 72 7.8 46.1 0
21:02 1020 30.12 849 25.07 12.7 54.8 71 7.6 45.7 0
21:03 1020 30.12 849 25.07 12.7 54.9 70 7.5 45.5 0
21:04 1020 30.12 849 25.07 12.8 55 71 7.7 45.9 0
21:05 1020 30.12 849 25.07 12.7 54.8 72 7.8 46.1 0
21:06 1020 30.12 849 25.07 12.4 54.4 73 7.8 46.1 0
21:07 1020 30.12 849 25.07 12.2 54 74 7.7 45.9 0
21:08 1020 30.12 849 25.07 12 53.6 75 7.7 45.8 0
21:09 1020 30.12 849 25.07 11.8 53.3 75 7.6 45.7 0
21:10 1020 30.12 849 25.07 11.6 52.9 77 7.7 45.8 0
21:11 1020 30.12 849 25.07 11.4 52.5 78 7.7 45.9 0
21:12 1020 30.12 849 25.07 11.2 52.2 78 7.5 45.5 0
21:13 1020 30.12 849 25.07 11.3 52.3 77 7.3 45.2 0
21:14 1020 30.12 849 25.07 11.6 52.8 74 7.1 44.9 0
21:15 1020 30.12 849 25.07 11.8 53.2 72 7 44.6 0
21:16 1020 30.12 849 25.07 11.8 53.2 74 7.4 45.3 0
21:17 1020 30.12 849 25.07 11.7 53 75 7.4 45.3 0
21:18 1020 30.12 849 25.07 11.5 52.7 76 7.5 45.5 0
21:19 1020 30.12 849 25.07 11.3 52.3 77 7.4 45.4 0
21:20 1020 30.12 849 25.07 11.2 52.2 76 7.2 45 0
21:21 1020 30.12 849 25.07 11.3 52.4 75 7.2 44.9 0
21:22 1020 30.12 849 25.07 11.3 52.3 76 7.2 45 0
21:23 1020 30.12 849 25.07 11.3 52.4 76 7.3 45.1 0
21:24 1020 30.12 849 25.07 11.3 52.4 76 7.3 45.1 0
21:25 1020 30.12 849 25.07 11.3 52.3 75 7.1 44.8 0
21:26 1020 30.12 849 25.07 11.3 52.3 74 6.9 44.4 0
21:27 1020 30.12 849 25.07 11.3 52.3 74 6.9 44.5 0
21:28 1020 30.12 849 25.07 11.2 52.2 75 7 44.6 0
21:29 1020 30.12 849 25.07 11.1 52 76 7 44.6 0
21:30 1020 30.12 849 25.07 11 51.9 76 7 44.7 0
21:31 1020 30.12 849 25.07 11 51.7 76 7 44.6 0
21:32 1020 30.12 849 25.07 10.9 51.6 76 6.8 44.3 0
21:33 1020 30.12 849 25.07 10.9 51.6 76 6.8 44.2 0
21:34 1020 30.12 849 25.07 10.9 51.7 76 6.9 44.4 0
21:35 1020 30.12 849 25.07 10.9 51.7 75 6.8 44.2 0
21:36 1020 30.12 849 25.07 10.9 51.7 76 6.8 44.3 0
21:37 1020 30.12 850 25.1 10.9 51.7 76 6.9 44.4 0
21:38 1020 30.12 850 25.1 10.9 51.6 77 6.9 44.5 0
21:39 1020 30.12 850 25.1 10.8 51.4 77 6.9 44.5 0
21:40 1020 30.12 850 25.1 10.7 51.3 77 6.9 44.4 0
21:41 1020 30.12 850 25.1 10.7 51.2 77 6.9 44.3 0
21:42 1020 30.12 850 25.1 10.6 51.1 77 6.8 44.3 0
21:43 1020 30.12 850 25.1 10.6 51.1 77 6.8 44.3 0
21:44 1020 30.12 850 25.1 10.6 51 77 6.8 44.2 0
21:45 1020 30.12 850 25.1 10.6 51 77 6.8 44.2 0
21:46 1020 30.12 850 25.1 10.5 51 78 6.8 44.3 0
21:47 1020 30.12 850 25.1 10.4 50.8 78 6.7 44.1 0
21:48 1020 30.12 850 25.1 10.4 50.8 78 6.7 44.1 0
21:49 1020 30.12 850 25.1 10.4 50.7 77 6.6 43.9 0
21:50 1020 30.12 850 25.1 10.4 50.7 77 6.5 43.7 0
21:51 1020 30.12 850 25.1 10.5 50.9 76 6.5 43.8 0
21:52 1020 30.12 850 25.1 10.5 50.9 77 6.6 43.9 0
21:53 1020 30.12 850 25.1 10.5 50.9 77 6.6 43.8 0
21:54 1021 30.15 850 25.1 10.5 51 76 6.6 43.8 0
21:55 1020 30.12 850 25.1 10.5 50.9 76 6.6 43.8 0
21:56 1021 30.15 850 25.1 10.5 50.9 77 6.6 43.9 0
21:57 1021 30.15 850 25.1 10.4 50.7 76 6.4 43.6 0
21:58 1021 30.15 850 25.1 10.4 50.7 76 6.4 43.5 0
21:59 1021 30.15 850 25.1 10.4 50.7 76 6.4 43.5 0
22:00 1021 30.15 850 25.1 10.4 50.8 76 6.4 43.6 0
22:01 1021 30.15 850 25.1 10.4 50.7 77 6.6 43.8 0
22:02 1021 30.15 850 25.1 10.2 50.4 78 6.6 44 0
22:03 1021 30.15 850 25.1 9.9 49.9 80 6.6 43.9 0
22:04 1021 30.15 850 25.1 9.7 49.5 80 6.5 43.6 0
22:05 1021 30.15 850 25.1 9.7 49.5 80 6.4 43.5 0
22:06 1021 30.15 850 25.1 9.7 49.5 80 6.4 43.5 0
22:07 1021 30.15 850 25.1 9.8 49.6 79 6.3 43.3 0
22:08 1021 30.15 850 25.1 10 49.9 79 6.5 43.7 0
22:09 1021 30.15 850 25.1 10.1 50.1 79 6.5 43.8 0
22:10 1021 30.15 850 25.1 10.2 50.3 79 6.7 44 0
22:11 1021 30.15 850 25.1 10.1 50.2 80 6.7 44.1 0
22:12 1021 30.15 850 25.1 10 49.9 80 6.7 44 0
22:13 1021 30.15 850 25.1 9.9 49.9 80 6.7 44 0
22:14 1021 30.15 850 25.1 9.9 49.8 80 6.6 43.8 0
22:15 1021 30.15 850 25.1 9.8 49.6 79 6.3 43.4 0
22:16 1021 30.15 850 25.1 9.9 49.7 78 6.2 43.2 0
22:17 1021 30.15 850 25.1 9.9 49.7 78 6.2 43.2 0
22:18 1021 30.15 850 25.1 9.8 49.7 78 6.3 43.3 0
22:19 1021 30.15 850 25.1 9.8 49.7 79 6.4 43.6 0
22:20 1021 30.15 850 25.1 9.8 49.6 80 6.5 43.7 0
22:21 1021 30.15 850 25.1 9.7 49.5 81 6.6 43.9 0
22:22 1021 30.15 850 25.1 9.7 49.4 81 6.5 43.8 0
22:23 1021 30.15 850 25.1 9.6 49.2 80 6.4 43.4 0
22:24 1021 30.15 850 25.1 9.6 49.3 79 6.2 43.1 0
22:25 1021 30.15 850 25.1 9.7 49.4 78 6 42.8 0
22:26 1021 30.15 850 25.1 9.8 49.6 77 6 42.8 0
22:27 1021 30.15 850 25.1 9.8 49.7 77 6 42.8 0
22:28 1021 30.15 850 25.1 9.9 49.7 77 6 42.8 0
22:29 1021 30.15 850 25.1 9.9 49.8 76 5.9 42.5 0
22:30 1021 30.15 850 25.1 10 50 75 5.8 42.4 0
22:31 1021 30.15 850 25.1 10.2 50.3 74 5.8 42.4 0
22:32 1021 30.15 850 25.1 10.3 50.6 73 5.7 42.3 0
22:33 1021 30.15 850 25.1 10.4 50.7 73 5.8 42.4 0
22:34 1021 30.15 850 25.1 10.4 50.7 73 5.8 42.4 0
22:35 1021 30.15 850 25.1 10.4 50.7 73 5.9 42.5 0
22:36 1021 30.15 850 25.1 10.3 50.5 74 5.9 42.7 0
22:37 1021 30.15 850 25.1 10.2 50.3 75 5.9 42.7 0
22:38 1021 30.15 850 25.1 10 50.1 75 5.8 42.5 0
22:39 1021 30.15 850 25.1 10 50 75 5.7 42.3 0
22:40 1021 30.15 850 25.1 10 50 74 5.6 42.1 0
22:41 1021 30.15 850 25.1 10.1 50.1 74 5.6 42.1 0
22:42 1021 30.15 850 25.1 10.1 50.1 74 5.6 42.1 0
22:43 1021 30.15 850 25.1 10.1 50.1 74 5.6 42.1 0
22:44 1021 30.15 850 25.1 10 50.1 74 5.6 42.2 0
22:45 1021 30.15 850 25.1 9.9 49.9 74 5.6 42.1 0
22:46 1021 30.15 850 25.1 9.9 49.8 74 5.6 42.1 0
22:47 1021 30.15 850 25.1 9.9 49.8 74 5.6 42 0
22:48 1021 30.15 850 25.1 9.8 49.7 75 5.6 42.1 0
22:49 1021 30.15 850 25.1 9.8 49.7 75 5.6 42 0
22:50 1021 30.15 850 25.1 9.9 49.8 74 5.4 41.8 0
22:51 1021 30.15 850 25.1 10 49.9 74 5.5 41.9 0
22:52 1021 30.15 850 25.1 10 50.1 73 5.4 41.6 0
22:53 1021 30.15 850 25.1 10.2 50.3 71 5.3 41.5 0
22:54 1021 30.15 850 25.1 10.4 50.6 71 5.4 41.8 0
22:55 1021 30.15 850 25.1 10.4 50.7 72 5.5 41.9 0
22:56 1021 30.15 850 25.1 10.2 50.4 72 5.5 42 0
22:57 1021 30.15 850 25.1 10.1 50.2 73 5.5 41.9 0
22:58 1021 30.15 850 25.1 10 50.1 73 5.4 41.7 0
22:59 1021 30.15 850 25.1 10 50.1 73 5.4 41.7 0
23:00 1021 30.15 850 25.1 10 50.1 72 5.3 41.5 0
23:01 1021 30.15 850 25.1 10.1 50.1 73 5.4 41.7 0
23:02 1021 30.15 850 25.1 10 50 73 5.5 41.8 0
23:03 1021 30.15 850 25.1 9.9 49.8 73 5.4 41.7 0
23:04 1021 30.15 850 25.1 9.9 49.8 73 5.4 41.7 0
23:05 1021 30.15 850 25.1 9.9 49.9 73 5.4 41.8 0
23:06 1021 30.15 850 25.1 9.9 49.8 74 5.5 41.9 0
23:07 1021 30.15 850 25.1 9.7 49.5 74 5.4 41.6 0
23:08 1021 30.15 850 25.1 9.6 49.2 75 5.3 41.6 0
23:09 1021 30.15 850 25.1 9.4 48.9 75 5.2 41.3 0
23:10 1021 30.15 850 25.1 9.5 49.1 73 5 41 0
23:11 1021 30.15 850 25.1 9.7 49.4 72 5 41 0
23:12 1021 30.15 850 25.1 9.8 49.6 72 5 41 0
23:13 1021 30.15 850 25.1 9.8 49.7 72 5.1 41.2 0
23:14 1021 30.15 850 25.1 9.8 49.6 72 5 41 0
23:15 1021 30.15 850 25.1 9.8 49.6 72 5.1 41.2 0
23:16 1021 30.15 850 25.1 9.8 49.6 72 5.1 41.2 0
23:17 1021 30.15 850 25.1 9.8 49.6 71 4.9 40.7 0
23:18 1021 30.15 850 25.1 9.9 49.7 71 4.9 40.8 0
23:19 1021 30.15 850 25.1 9.9 49.8 71 4.9 40.9 0
23:20 1021 30.15 850 25.1 9.9 49.8 72 5.1 41.1 0
23:21 1021 30.15 850 25.1 9.8 49.7 72 5 40.9 0
23:22 1021 30.15 850 25.1 9.8 49.6 72 5 40.9 0
23:23 1021 30.15 850 25.1 9.7 49.5 72 4.9 40.7 0
23:24 1021 30.15 850 25.1 9.8 49.6 71 4.8 40.6 0
23:25 1021 30.15 850 25.1 9.8 49.7 71 4.8 40.6 0
23:26 1021 30.15 850 25.1 9.9 49.8 69 4.6 40.2 0
23:27 1021 30.15 850 25.1 10 50 69 4.6 40.2 0
23:28 1021 30.15 850 25.1 10 50.1 69 4.6 40.2 0
23:29 1021 30.15 850 25.1 10.1 50.2 68 4.6 40.3 0
23:30 1021 30.15 850 25.1 10.2 50.3 69 4.7 40.5 0
23:31 1021 30.15 850 25.1 10.1 50.2 69 4.7 40.5 0
23:32 1021 30.15 850 25.1 10.1 50.2 69 4.7 40.4 0
23:33 1021 30.15 850 25.1 10.1 50.1 69 4.8 40.6 0
23:34 1021 30.15 850 25.1 10 50 70 4.8 40.7 0
23:35 1021 30.15 850 25.1 10 50 70 4.8 40.6 0
23:36 1021 30.15 850 25.1 10 49.9 70 4.7 40.5 0
23:37 1021 30.15 850 25.1 10 49.9 70 4.8 40.6 0
23:38 1021 30.15 850 25.1 10 49.9 70 4.7 40.5 0
23:39 1021 30.15 850 25.1 10 50 70 4.9 40.7 0
23:40 1021 30.15 850 25.1 9.9 49.9 70 4.7 40.5 0
23:41 1021 30.15 850 25.1 9.9 49.8 70 4.7 40.5 0
23:42 1021 30.15 850 25.1 9.9 49.8 71 4.8 40.7 0
23:43 1021 30.15 850 25.1 9.8 49.7 70 4.7 40.5 0
23:44 1021 30.15 850 25.1 9.8 49.6 70 4.6 40.3 0
23:45 1021 30.15 850 25.1 9.8 49.6 70 4.6 40.4 0
23:46 1021 30.15 850 25.1 9.7 49.5 71 4.7 40.5 0
23:47 1021 30.15 850 25.1 9.7 49.4 71 4.6 40.4 0
23:48 1021 30.15 850 25.1 9.7 49.5 70 4.5 40.2 0
23:49 1021 30.15 850 25.1 9.8 49.7 70 4.7 40.5 0
23:50 1021 30.15 850 25.1 9.9 49.8 70 4.6 40.3 0
23:51 1021 30.15 850 25.1 10 50 69 4.7 40.5 0
23:52 1021 30.15 850 25.1 10.1 50.2 69 4.7 40.5 0
23:53 1021 30.15 850 25.1 10.1 50.1 69 4.8 40.6 0
23:54 1021 30.15 850 25.1 10.1 50.1 69 4.7 40.5 0
23:55 1021 30.15 850 25.1 10 50.1 69 4.7 40.4 0
23:56 1021 30.15 850 25.1 10 49.9 69 4.6 40.3 0
23:57 1021 30.15 850 25.1 9.8 49.6 69 4.4 40 0
23:58 1021 30.15 850 25.1 9.7 49.4 69 4.3 39.8 0
23:59 1021 30.15 850 25.1 9.6 49.3 69 4.3 39.7 0
24:00 1021 30.15 850 25.1 9.7 49.4 69 4.4 39.8 0